<gpx creator="Cyclotour.ca" version="1.1" xmlns:gpsies="http://www.gpsies.com/GPX/1/0" xmlns:xsi="http://www.w3.org/2001/XMLSchema-instance" xmlns="http://www.topografix.com/GPX/1/1" xsi:schemaLocation="http://www.topografix.com/GPX/1/1 http://www.topografix.com/GPX/1/1/gpx.xsd http://www.gpsies.com/GPX/1/0 http://www.gpsies.com/gpsies.xsd">
<trk>
<name>Québec-Ontario Valleyfield  Brossard   Jour 7,  72 km  2022</name>
<trkseg>
<trkpt lat="45.270270000" lon="-74.135590000">
<ele>0</ele>
<time>2026-09-04T06:30:10Z</time>
</trkpt>
<trkpt lat="45.269990000" lon="-74.135390000">
<ele>0</ele>
<time>2026-09-04T06:30:11Z</time>
</trkpt>
<trkpt lat="45.269920000" lon="-74.135610000">
<ele>0</ele>
<time>2026-09-04T06:30:12Z</time>
</trkpt>
<trkpt lat="45.269920000" lon="-74.135610000">
<ele>0</ele>
<time>2026-09-04T06:30:13Z</time>
</trkpt>
<trkpt lat="45.269400000" lon="-74.137110000">
<ele>0</ele>
<time>2026-09-04T06:30:14Z</time>
</trkpt>
<trkpt lat="45.268830000" lon="-74.138770000">
<ele>0</ele>
<time>2026-09-04T06:30:15Z</time>
</trkpt>
<trkpt lat="45.268350000" lon="-74.138480000">
<ele>0</ele>
<time>2026-09-04T06:30:16Z</time>
</trkpt>
<trkpt lat="45.268350000" lon="-74.138480000">
<ele>0</ele>
<time>2026-09-04T06:30:17Z</time>
</trkpt>
<trkpt lat="45.266650000" lon="-74.137250000">
<ele>0</ele>
<time>2026-09-04T06:30:18Z</time>
</trkpt>
<trkpt lat="45.266650000" lon="-74.137250000">
<ele>0</ele>
<time>2026-09-04T06:30:19Z</time>
</trkpt>
<trkpt lat="45.266190000" lon="-74.136920000">
<ele>0</ele>
<time>2026-09-04T06:30:20Z</time>
</trkpt>
<trkpt lat="45.266070000" lon="-74.137250000">
<ele>0</ele>
<time>2026-09-04T06:30:21Z</time>
</trkpt>
<trkpt lat="45.266070000" lon="-74.137250000">
<ele>0</ele>
<time>2026-09-04T06:30:22Z</time>
</trkpt>
<trkpt lat="45.265580000" lon="-74.138590000">
<ele>0</ele>
<time>2026-09-04T06:30:23Z</time>
</trkpt>
<trkpt lat="45.264980000" lon="-74.138170000">
<ele>0</ele>
<time>2026-09-04T06:30:24Z</time>
</trkpt>
<trkpt lat="45.264790000" lon="-74.138080000">
<ele>0</ele>
<time>2026-09-04T06:30:25Z</time>
</trkpt>
<trkpt lat="45.264450000" lon="-74.137840000">
<ele>0</ele>
<time>2026-09-04T06:30:26Z</time>
</trkpt>
<trkpt lat="45.264450000" lon="-74.137840000">
<ele>0</ele>
<time>2026-09-04T06:30:27Z</time>
</trkpt>
<trkpt lat="45.263550000" lon="-74.137180000">
<ele>0</ele>
<time>2026-09-04T06:30:28Z</time>
</trkpt>
<trkpt lat="45.262950000" lon="-74.136740000">
<ele>0</ele>
<time>2026-09-04T06:30:29Z</time>
</trkpt>
<trkpt lat="45.262330000" lon="-74.136360000">
<ele>0</ele>
<time>2026-09-04T06:30:30Z</time>
</trkpt>
<trkpt lat="45.262010000" lon="-74.136150000">
<ele>0</ele>
<time>2026-09-04T06:30:31Z</time>
</trkpt>
<trkpt lat="45.261970000" lon="-74.136100000">
<ele>0</ele>
<time>2026-09-04T06:30:32Z</time>
</trkpt>
<trkpt lat="45.261930000" lon="-74.135730000">
<ele>0</ele>
<time>2026-09-04T06:30:33Z</time>
</trkpt>
<trkpt lat="45.261880000" lon="-74.135610000">
<ele>0</ele>
<time>2026-09-04T06:30:34Z</time>
</trkpt>
<trkpt lat="45.261520000" lon="-74.135000000">
<ele>0</ele>
<time>2026-09-04T06:30:35Z</time>
</trkpt>
<trkpt lat="45.261520000" lon="-74.135000000">
<ele>0</ele>
<time>2026-09-04T06:30:36Z</time>
</trkpt>
<trkpt lat="45.261450000" lon="-74.134870000">
<ele>0</ele>
<time>2026-09-04T06:30:37Z</time>
</trkpt>
<trkpt lat="45.261480000" lon="-74.134780000">
<ele>0</ele>
<time>2026-09-04T06:30:38Z</time>
</trkpt>
<trkpt lat="45.261860000" lon="-74.133770000">
<ele>0</ele>
<time>2026-09-04T06:30:39Z</time>
</trkpt>
<trkpt lat="45.261860000" lon="-74.133770000">
<ele>0</ele>
<time>2026-09-04T06:30:40Z</time>
</trkpt>
<trkpt lat="45.261910000" lon="-74.133640000">
<ele>0</ele>
<time>2026-09-04T06:30:41Z</time>
</trkpt>
<trkpt lat="45.261750000" lon="-74.133460000">
<ele>0</ele>
<time>2026-09-04T06:30:42Z</time>
</trkpt>
<trkpt lat="45.261750000" lon="-74.133460000">
<ele>0</ele>
<time>2026-09-04T06:30:43Z</time>
</trkpt>
<trkpt lat="45.260660000" lon="-74.132160000">
<ele>0</ele>
<time>2026-09-04T06:30:44Z</time>
</trkpt>
<trkpt lat="45.260500000" lon="-74.131960000">
<ele>0</ele>
<time>2026-09-04T06:30:45Z</time>
</trkpt>
<trkpt lat="45.260300000" lon="-74.131640000">
<ele>0</ele>
<time>2026-09-04T06:30:46Z</time>
</trkpt>
<trkpt lat="45.260170000" lon="-74.131440000">
<ele>0</ele>
<time>2026-09-04T06:30:47Z</time>
</trkpt>
<trkpt lat="45.259540000" lon="-74.130420000">
<ele>0</ele>
<time>2026-09-04T06:30:48Z</time>
</trkpt>
<trkpt lat="45.259290000" lon="-74.130110000">
<ele>0</ele>
<time>2026-09-04T06:30:49Z</time>
</trkpt>
<trkpt lat="45.259130000" lon="-74.129980000">
<ele>0</ele>
<time>2026-09-04T06:30:50Z</time>
</trkpt>
<trkpt lat="45.259130000" lon="-74.129980000">
<ele>0</ele>
<time>2026-09-04T06:30:51Z</time>
</trkpt>
<trkpt lat="45.259010000" lon="-74.129900000">
<ele>0</ele>
<time>2026-09-04T06:30:52Z</time>
</trkpt>
<trkpt lat="45.258740000" lon="-74.129810000">
<ele>0</ele>
<time>2026-09-04T06:30:53Z</time>
</trkpt>
<trkpt lat="45.258470000" lon="-74.129780000">
<ele>0</ele>
<time>2026-09-04T06:30:54Z</time>
</trkpt>
<trkpt lat="45.258250000" lon="-74.129790000">
<ele>0</ele>
<time>2026-09-04T06:30:55Z</time>
</trkpt>
<trkpt lat="45.257530000" lon="-74.129830000">
<ele>0</ele>
<time>2026-09-04T06:30:56Z</time>
</trkpt>
<trkpt lat="45.257140000" lon="-74.129830000">
<ele>0</ele>
<time>2026-09-04T06:30:57Z</time>
</trkpt>
<trkpt lat="45.256830000" lon="-74.129870000">
<ele>0</ele>
<time>2026-09-04T06:30:58Z</time>
</trkpt>
<trkpt lat="45.256830000" lon="-74.129870000">
<ele>0</ele>
<time>2026-09-04T06:30:59Z</time>
</trkpt>
<trkpt lat="45.256460000" lon="-74.129910000">
<ele>0</ele>
<time>2026-09-04T06:31:00Z</time>
</trkpt>
<trkpt lat="45.256550000" lon="-74.129910000">
<ele>0</ele>
<time>2026-09-04T06:31:01Z</time>
</trkpt>
<trkpt lat="45.256580000" lon="-74.129670000">
<ele>0</ele>
<time>2026-09-04T06:31:02Z</time>
</trkpt>
<trkpt lat="45.256580000" lon="-74.129670000">
<ele>0</ele>
<time>2026-09-04T06:31:03Z</time>
</trkpt>
<trkpt lat="45.256710000" lon="-74.128360000">
<ele>0</ele>
<time>2026-09-04T06:31:04Z</time>
</trkpt>
<trkpt lat="45.256820000" lon="-74.126810000">
<ele>0</ele>
<time>2026-09-04T06:31:05Z</time>
</trkpt>
<trkpt lat="45.256940000" lon="-74.125740000">
<ele>0</ele>
<time>2026-09-04T06:31:06Z</time>
</trkpt>
<trkpt lat="45.256940000" lon="-74.125740000">
<ele>0</ele>
<time>2026-09-04T06:31:07Z</time>
</trkpt>
<trkpt lat="45.257020000" lon="-74.124960000">
<ele>0</ele>
<time>2026-09-04T06:31:08Z</time>
</trkpt>
<trkpt lat="45.257020000" lon="-74.124960000">
<ele>0</ele>
<time>2026-09-04T06:31:09Z</time>
</trkpt>
<trkpt lat="45.257250000" lon="-74.122940000">
<ele>0</ele>
<time>2026-09-04T06:31:10Z</time>
</trkpt>
<trkpt lat="45.257250000" lon="-74.122940000">
<ele>0</ele>
<time>2026-09-04T06:31:11Z</time>
</trkpt>
<trkpt lat="45.257310000" lon="-74.122270000">
<ele>0</ele>
<time>2026-09-04T06:31:12Z</time>
</trkpt>
<trkpt lat="45.257300000" lon="-74.122120000">
<ele>0</ele>
<time>2026-09-04T06:31:13Z</time>
</trkpt>
<trkpt lat="45.257420000" lon="-74.121070000">
<ele>0</ele>
<time>2026-09-04T06:31:14Z</time>
</trkpt>
<trkpt lat="45.257630000" lon="-74.119280000">
<ele>0</ele>
<time>2026-09-04T06:31:15Z</time>
</trkpt>
<trkpt lat="45.257630000" lon="-74.119280000">
<ele>0</ele>
<time>2026-09-04T06:31:16Z</time>
</trkpt>
<trkpt lat="45.257840000" lon="-74.117580000">
<ele>0</ele>
<time>2026-09-04T06:31:17Z</time>
</trkpt>
<trkpt lat="45.257910000" lon="-74.116590000">
<ele>0</ele>
<time>2026-09-04T06:31:18Z</time>
</trkpt>
<trkpt lat="45.257930000" lon="-74.115800000">
<ele>0</ele>
<time>2026-09-04T06:31:19Z</time>
</trkpt>
<trkpt lat="45.257920000" lon="-74.115330000">
<ele>0</ele>
<time>2026-09-04T06:31:20Z</time>
</trkpt>
<trkpt lat="45.257920000" lon="-74.115330000">
<ele>0</ele>
<time>2026-09-04T06:31:21Z</time>
</trkpt>
<trkpt lat="45.257860000" lon="-74.113800000">
<ele>0</ele>
<time>2026-09-04T06:31:22Z</time>
</trkpt>
<trkpt lat="45.257860000" lon="-74.113800000">
<ele>0</ele>
<time>2026-09-04T06:31:23Z</time>
</trkpt>
<trkpt lat="45.257880000" lon="-74.113550000">
<ele>0</ele>
<time>2026-09-04T06:31:24Z</time>
</trkpt>
<trkpt lat="45.257900000" lon="-74.113340000">
<ele>0</ele>
<time>2026-09-04T06:31:25Z</time>
</trkpt>
<trkpt lat="45.258010000" lon="-74.112920000">
<ele>0</ele>
<time>2026-09-04T06:31:26Z</time>
</trkpt>
<trkpt lat="45.258100000" lon="-74.112570000">
<ele>0</ele>
<time>2026-09-04T06:31:27Z</time>
</trkpt>
<trkpt lat="45.258100000" lon="-74.112570000">
<ele>0</ele>
<time>2026-09-04T06:31:28Z</time>
</trkpt>
<trkpt lat="45.258120000" lon="-74.112540000">
<ele>0</ele>
<time>2026-09-04T06:31:29Z</time>
</trkpt>
<trkpt lat="45.258130000" lon="-74.112550000">
<ele>0</ele>
<time>2026-09-04T06:31:30Z</time>
</trkpt>
<trkpt lat="45.258150000" lon="-74.112570000">
<ele>0</ele>
<time>2026-09-04T06:31:31Z</time>
</trkpt>
<trkpt lat="45.258210000" lon="-74.112590000">
<ele>0</ele>
<time>2026-09-04T06:31:32Z</time>
</trkpt>
<trkpt lat="45.258270000" lon="-74.112570000">
<ele>0</ele>
<time>2026-09-04T06:31:33Z</time>
</trkpt>
<trkpt lat="45.258310000" lon="-74.112510000">
<ele>0</ele>
<time>2026-09-04T06:31:34Z</time>
</trkpt>
<trkpt lat="45.258340000" lon="-74.112440000">
<ele>0</ele>
<time>2026-09-04T06:31:35Z</time>
</trkpt>
<trkpt lat="45.258430000" lon="-74.112530000">
<ele>0</ele>
<time>2026-09-04T06:31:36Z</time>
</trkpt>
<trkpt lat="45.258430000" lon="-74.112530000">
<ele>0</ele>
<time>2026-09-04T06:31:37Z</time>
</trkpt>
<trkpt lat="45.258740000" lon="-74.112850000">
<ele>0</ele>
<time>2026-09-04T06:31:38Z</time>
</trkpt>
<trkpt lat="45.258840000" lon="-74.112950000">
<ele>0</ele>
<time>2026-09-04T06:31:39Z</time>
</trkpt>
<trkpt lat="45.258940000" lon="-74.113100000">
<ele>0</ele>
<time>2026-09-04T06:31:40Z</time>
</trkpt>
<trkpt lat="45.259190000" lon="-74.113570000">
<ele>0</ele>
<time>2026-09-04T06:31:41Z</time>
</trkpt>
<trkpt lat="45.259980000" lon="-74.114900000">
<ele>0</ele>
<time>2026-09-04T06:31:42Z</time>
</trkpt>
<trkpt lat="45.260100000" lon="-74.115050000">
<ele>0</ele>
<time>2026-09-04T06:31:43Z</time>
</trkpt>
<trkpt lat="45.260160000" lon="-74.115100000">
<ele>0</ele>
<time>2026-09-04T06:31:44Z</time>
</trkpt>
<trkpt lat="45.260270000" lon="-74.115120000">
<ele>0</ele>
<time>2026-09-04T06:31:45Z</time>
</trkpt>
<trkpt lat="45.260610000" lon="-74.114920000">
<ele>0</ele>
<time>2026-09-04T06:31:46Z</time>
</trkpt>
<trkpt lat="45.260610000" lon="-74.114920000">
<ele>0</ele>
<time>2026-09-04T06:31:47Z</time>
</trkpt>
<trkpt lat="45.260730000" lon="-74.114860000">
<ele>0</ele>
<time>2026-09-04T06:31:48Z</time>
</trkpt>
<trkpt lat="45.260780000" lon="-74.114860000">
<ele>0</ele>
<time>2026-09-04T06:31:49Z</time>
</trkpt>
<trkpt lat="45.261130000" lon="-74.114660000">
<ele>0</ele>
<time>2026-09-04T06:31:50Z</time>
</trkpt>
<trkpt lat="45.261230000" lon="-74.114560000">
<ele>0</ele>
<time>2026-09-04T06:31:51Z</time>
</trkpt>
<trkpt lat="45.261250000" lon="-74.114500000">
<ele>0</ele>
<time>2026-09-04T06:31:52Z</time>
</trkpt>
<trkpt lat="45.261750000" lon="-74.114240000">
<ele>0</ele>
<time>2026-09-04T06:31:53Z</time>
</trkpt>
<trkpt lat="45.262420000" lon="-74.113860000">
<ele>0</ele>
<time>2026-09-04T06:31:54Z</time>
</trkpt>
<trkpt lat="45.262620000" lon="-74.113750000">
<ele>0</ele>
<time>2026-09-04T06:31:55Z</time>
</trkpt>
<trkpt lat="45.262770000" lon="-74.113710000">
<ele>0</ele>
<time>2026-09-04T06:31:56Z</time>
</trkpt>
<trkpt lat="45.262950000" lon="-74.113640000">
<ele>0</ele>
<time>2026-09-04T06:31:57Z</time>
</trkpt>
<trkpt lat="45.263510000" lon="-74.113300000">
<ele>0</ele>
<time>2026-09-04T06:31:58Z</time>
</trkpt>
<trkpt lat="45.264160000" lon="-74.112940000">
<ele>0</ele>
<time>2026-09-04T06:31:59Z</time>
</trkpt>
<trkpt lat="45.264160000" lon="-74.112940000">
<ele>0</ele>
<time>2026-09-04T06:32:00Z</time>
</trkpt>
<trkpt lat="45.264210000" lon="-74.112910000">
<ele>0</ele>
<time>2026-09-04T06:32:01Z</time>
</trkpt>
<trkpt lat="45.264120000" lon="-74.112580000">
<ele>0</ele>
<time>2026-09-04T06:32:02Z</time>
</trkpt>
<trkpt lat="45.264120000" lon="-74.112580000">
<ele>0</ele>
<time>2026-09-04T06:32:03Z</time>
</trkpt>
<trkpt lat="45.263560000" lon="-74.110660000">
<ele>0</ele>
<time>2026-09-04T06:32:04Z</time>
</trkpt>
<trkpt lat="45.262630000" lon="-74.107700000">
<ele>0</ele>
<time>2026-09-04T06:32:05Z</time>
</trkpt>
<trkpt lat="45.262310000" lon="-74.106810000">
<ele>0</ele>
<time>2026-09-04T06:32:06Z</time>
</trkpt>
<trkpt lat="45.262000000" lon="-74.105850000">
<ele>0</ele>
<time>2026-09-04T06:32:07Z</time>
</trkpt>
<trkpt lat="45.261790000" lon="-74.105200000">
<ele>0</ele>
<time>2026-09-04T06:32:08Z</time>
</trkpt>
<trkpt lat="45.261570000" lon="-74.104650000">
<ele>0</ele>
<time>2026-09-04T06:32:09Z</time>
</trkpt>
<trkpt lat="45.261510000" lon="-74.104550000">
<ele>0</ele>
<time>2026-09-04T06:32:10Z</time>
</trkpt>
<trkpt lat="45.261360000" lon="-74.104420000">
<ele>0</ele>
<time>2026-09-04T06:32:11Z</time>
</trkpt>
<trkpt lat="45.261540000" lon="-74.103720000">
<ele>0</ele>
<time>2026-09-04T06:32:12Z</time>
</trkpt>
<trkpt lat="45.261540000" lon="-74.103720000">
<ele>0</ele>
<time>2026-09-04T06:32:13Z</time>
</trkpt>
<trkpt lat="45.261660000" lon="-74.103280000">
<ele>0</ele>
<time>2026-09-04T06:32:14Z</time>
</trkpt>
<trkpt lat="45.261810000" lon="-74.102790000">
<ele>0</ele>
<time>2026-09-04T06:32:15Z</time>
</trkpt>
<trkpt lat="45.262080000" lon="-74.102180000">
<ele>0</ele>
<time>2026-09-04T06:32:16Z</time>
</trkpt>
<trkpt lat="45.262400000" lon="-74.101660000">
<ele>0</ele>
<time>2026-09-04T06:32:17Z</time>
</trkpt>
<trkpt lat="45.262610000" lon="-74.101390000">
<ele>0</ele>
<time>2026-09-04T06:32:18Z</time>
</trkpt>
<trkpt lat="45.264180000" lon="-74.099690000">
<ele>0</ele>
<time>2026-09-04T06:32:19Z</time>
</trkpt>
<trkpt lat="45.264930000" lon="-74.098920000">
<ele>0</ele>
<time>2026-09-04T06:32:20Z</time>
</trkpt>
<trkpt lat="45.266070000" lon="-74.097860000">
<ele>0</ele>
<time>2026-09-04T06:32:21Z</time>
</trkpt>
<trkpt lat="45.266220000" lon="-74.097740000">
<ele>0</ele>
<time>2026-09-04T06:32:22Z</time>
</trkpt>
<trkpt lat="45.266460000" lon="-74.097610000">
<ele>0</ele>
<time>2026-09-04T06:32:23Z</time>
</trkpt>
<trkpt lat="45.266650000" lon="-74.097520000">
<ele>0</ele>
<time>2026-09-04T06:32:24Z</time>
</trkpt>
<trkpt lat="45.266830000" lon="-74.097470000">
<ele>0</ele>
<time>2026-09-04T06:32:25Z</time>
</trkpt>
<trkpt lat="45.267290000" lon="-74.097410000">
<ele>0</ele>
<time>2026-09-04T06:32:26Z</time>
</trkpt>
<trkpt lat="45.267690000" lon="-74.097390000">
<ele>0</ele>
<time>2026-09-04T06:32:27Z</time>
</trkpt>
<trkpt lat="45.267930000" lon="-74.097340000">
<ele>0</ele>
<time>2026-09-04T06:32:28Z</time>
</trkpt>
<trkpt lat="45.268530000" lon="-74.097170000">
<ele>0</ele>
<time>2026-09-04T06:32:29Z</time>
</trkpt>
<trkpt lat="45.269020000" lon="-74.096990000">
<ele>0</ele>
<time>2026-09-04T06:32:30Z</time>
</trkpt>
<trkpt lat="45.269430000" lon="-74.096750000">
<ele>0</ele>
<time>2026-09-04T06:32:31Z</time>
</trkpt>
<trkpt lat="45.269690000" lon="-74.096550000">
<ele>0</ele>
<time>2026-09-04T06:32:32Z</time>
</trkpt>
<trkpt lat="45.270140000" lon="-74.096120000">
<ele>0</ele>
<time>2026-09-04T06:32:33Z</time>
</trkpt>
<trkpt lat="45.270270000" lon="-74.095900000">
<ele>0</ele>
<time>2026-09-04T06:32:34Z</time>
</trkpt>
<trkpt lat="45.270730000" lon="-74.095320000">
<ele>0</ele>
<time>2026-09-04T06:32:35Z</time>
</trkpt>
<trkpt lat="45.271410000" lon="-74.094490000">
<ele>0</ele>
<time>2026-09-04T06:32:36Z</time>
</trkpt>
<trkpt lat="45.271820000" lon="-74.094030000">
<ele>0</ele>
<time>2026-09-04T06:32:37Z</time>
</trkpt>
<trkpt lat="45.272140000" lon="-74.093570000">
<ele>0</ele>
<time>2026-09-04T06:32:38Z</time>
</trkpt>
<trkpt lat="45.272140000" lon="-74.093570000">
<ele>0</ele>
<time>2026-09-04T06:32:39Z</time>
</trkpt>
<trkpt lat="45.272440000" lon="-74.093130000">
<ele>0</ele>
<time>2026-09-04T06:32:40Z</time>
</trkpt>
<trkpt lat="45.272820000" lon="-74.092460000">
<ele>0</ele>
<time>2026-09-04T06:32:41Z</time>
</trkpt>
<trkpt lat="45.273170000" lon="-74.091700000">
<ele>0</ele>
<time>2026-09-04T06:32:42Z</time>
</trkpt>
<trkpt lat="45.273530000" lon="-74.090760000">
<ele>0</ele>
<time>2026-09-04T06:32:43Z</time>
</trkpt>
<trkpt lat="45.273970000" lon="-74.089500000">
<ele>0</ele>
<time>2026-09-04T06:32:44Z</time>
</trkpt>
<trkpt lat="45.274720000" lon="-74.087600000">
<ele>0</ele>
<time>2026-09-04T06:32:45Z</time>
</trkpt>
<trkpt lat="45.274760000" lon="-74.087530000">
<ele>0</ele>
<time>2026-09-04T06:32:46Z</time>
</trkpt>
<trkpt lat="45.274920000" lon="-74.087060000">
<ele>0</ele>
<time>2026-09-04T06:32:47Z</time>
</trkpt>
<trkpt lat="45.275540000" lon="-74.085230000">
<ele>0</ele>
<time>2026-09-04T06:32:48Z</time>
</trkpt>
<trkpt lat="45.275580000" lon="-74.085120000">
<ele>0</ele>
<time>2026-09-04T06:32:49Z</time>
</trkpt>
<trkpt lat="45.275580000" lon="-74.085120000">
<ele>0</ele>
<time>2026-09-04T06:32:50Z</time>
</trkpt>
<trkpt lat="45.276480000" lon="-74.082550000">
<ele>0</ele>
<time>2026-09-04T06:32:51Z</time>
</trkpt>
<trkpt lat="45.276670000" lon="-74.081950000">
<ele>0</ele>
<time>2026-09-04T06:32:52Z</time>
</trkpt>
<trkpt lat="45.276780000" lon="-74.081360000">
<ele>0</ele>
<time>2026-09-04T06:32:53Z</time>
</trkpt>
<trkpt lat="45.276820000" lon="-74.080940000">
<ele>0</ele>
<time>2026-09-04T06:32:54Z</time>
</trkpt>
<trkpt lat="45.276820000" lon="-74.080610000">
<ele>0</ele>
<time>2026-09-04T06:32:55Z</time>
</trkpt>
<trkpt lat="45.276820000" lon="-74.080610000">
<ele>0</ele>
<time>2026-09-04T06:32:56Z</time>
</trkpt>
<trkpt lat="45.276810000" lon="-74.080210000">
<ele>0</ele>
<time>2026-09-04T06:32:57Z</time>
</trkpt>
<trkpt lat="45.276730000" lon="-74.079340000">
<ele>0</ele>
<time>2026-09-04T06:32:58Z</time>
</trkpt>
<trkpt lat="45.276380000" lon="-74.076260000">
<ele>0</ele>
<time>2026-09-04T06:32:59Z</time>
</trkpt>
<trkpt lat="45.276310000" lon="-74.075460000">
<ele>0</ele>
<time>2026-09-04T06:33:00Z</time>
</trkpt>
<trkpt lat="45.276330000" lon="-74.074880000">
<ele>0</ele>
<time>2026-09-04T06:33:01Z</time>
</trkpt>
<trkpt lat="45.276410000" lon="-74.074300000">
<ele>0</ele>
<time>2026-09-04T06:33:02Z</time>
</trkpt>
<trkpt lat="45.276520000" lon="-74.073820000">
<ele>0</ele>
<time>2026-09-04T06:33:03Z</time>
</trkpt>
<trkpt lat="45.276690000" lon="-74.073260000">
<ele>0</ele>
<time>2026-09-04T06:33:04Z</time>
</trkpt>
<trkpt lat="45.276900000" lon="-74.072700000">
<ele>0</ele>
<time>2026-09-04T06:33:05Z</time>
</trkpt>
<trkpt lat="45.277120000" lon="-74.072250000">
<ele>0</ele>
<time>2026-09-04T06:33:06Z</time>
</trkpt>
<trkpt lat="45.277360000" lon="-74.071860000">
<ele>0</ele>
<time>2026-09-04T06:33:07Z</time>
</trkpt>
<trkpt lat="45.277660000" lon="-74.071450000">
<ele>0</ele>
<time>2026-09-04T06:33:08Z</time>
</trkpt>
<trkpt lat="45.277700000" lon="-74.071410000">
<ele>0</ele>
<time>2026-09-04T06:33:09Z</time>
</trkpt>
<trkpt lat="45.277700000" lon="-74.071410000">
<ele>0</ele>
<time>2026-09-04T06:33:10Z</time>
</trkpt>
<trkpt lat="45.281790000" lon="-74.066630000">
<ele>0</ele>
<time>2026-09-04T06:33:11Z</time>
</trkpt>
<trkpt lat="45.283950000" lon="-74.064100000">
<ele>0</ele>
<time>2026-09-04T06:33:12Z</time>
</trkpt>
<trkpt lat="45.284660000" lon="-74.063220000">
<ele>0</ele>
<time>2026-09-04T06:33:13Z</time>
</trkpt>
<trkpt lat="45.285040000" lon="-74.062610000">
<ele>0</ele>
<time>2026-09-04T06:33:14Z</time>
</trkpt>
<trkpt lat="45.285430000" lon="-74.061810000">
<ele>0</ele>
<time>2026-09-04T06:33:15Z</time>
</trkpt>
<trkpt lat="45.285670000" lon="-74.061170000">
<ele>0</ele>
<time>2026-09-04T06:33:16Z</time>
</trkpt>
<trkpt lat="45.285770000" lon="-74.060830000">
<ele>0</ele>
<time>2026-09-04T06:33:17Z</time>
</trkpt>
<trkpt lat="45.285950000" lon="-74.060090000">
<ele>0</ele>
<time>2026-09-04T06:33:18Z</time>
</trkpt>
<trkpt lat="45.286080000" lon="-74.059380000">
<ele>0</ele>
<time>2026-09-04T06:33:19Z</time>
</trkpt>
<trkpt lat="45.286340000" lon="-74.057970000">
<ele>0</ele>
<time>2026-09-04T06:33:20Z</time>
</trkpt>
<trkpt lat="45.286340000" lon="-74.057970000">
<ele>0</ele>
<time>2026-09-04T06:33:21Z</time>
</trkpt>
<trkpt lat="45.287500000" lon="-74.051570000">
<ele>0</ele>
<time>2026-09-04T06:33:22Z</time>
</trkpt>
<trkpt lat="45.288440000" lon="-74.046420000">
<ele>0</ele>
<time>2026-09-04T06:33:23Z</time>
</trkpt>
<trkpt lat="45.289460000" lon="-74.040630000">
<ele>0</ele>
<time>2026-09-04T06:33:24Z</time>
</trkpt>
<trkpt lat="45.289950000" lon="-74.038070000">
<ele>0</ele>
<time>2026-09-04T06:33:25Z</time>
</trkpt>
<trkpt lat="45.290110000" lon="-74.037420000">
<ele>0</ele>
<time>2026-09-04T06:33:26Z</time>
</trkpt>
<trkpt lat="45.290240000" lon="-74.037060000">
<ele>0</ele>
<time>2026-09-04T06:33:27Z</time>
</trkpt>
<trkpt lat="45.290460000" lon="-74.036520000">
<ele>0</ele>
<time>2026-09-04T06:33:28Z</time>
</trkpt>
<trkpt lat="45.290710000" lon="-74.036040000">
<ele>0</ele>
<time>2026-09-04T06:33:29Z</time>
</trkpt>
<trkpt lat="45.290920000" lon="-74.035710000">
<ele>0</ele>
<time>2026-09-04T06:33:30Z</time>
</trkpt>
<trkpt lat="45.291320000" lon="-74.035200000">
<ele>0</ele>
<time>2026-09-04T06:33:31Z</time>
</trkpt>
<trkpt lat="45.291730000" lon="-74.034790000">
<ele>0</ele>
<time>2026-09-04T06:33:32Z</time>
</trkpt>
<trkpt lat="45.292120000" lon="-74.034500000">
<ele>0</ele>
<time>2026-09-04T06:33:33Z</time>
</trkpt>
<trkpt lat="45.292630000" lon="-74.034220000">
<ele>0</ele>
<time>2026-09-04T06:33:34Z</time>
</trkpt>
<trkpt lat="45.294120000" lon="-74.033500000">
<ele>0</ele>
<time>2026-09-04T06:33:35Z</time>
</trkpt>
<trkpt lat="45.298310000" lon="-74.031490000">
<ele>0</ele>
<time>2026-09-04T06:33:36Z</time>
</trkpt>
<trkpt lat="45.298710000" lon="-74.031230000">
<ele>0</ele>
<time>2026-09-04T06:33:37Z</time>
</trkpt>
<trkpt lat="45.299090000" lon="-74.030860000">
<ele>0</ele>
<time>2026-09-04T06:33:38Z</time>
</trkpt>
<trkpt lat="45.299380000" lon="-74.030460000">
<ele>0</ele>
<time>2026-09-04T06:33:39Z</time>
</trkpt>
<trkpt lat="45.299510000" lon="-74.030220000">
<ele>0</ele>
<time>2026-09-04T06:33:40Z</time>
</trkpt>
<trkpt lat="45.299760000" lon="-74.029670000">
<ele>0</ele>
<time>2026-09-04T06:33:41Z</time>
</trkpt>
<trkpt lat="45.299880000" lon="-74.029270000">
<ele>0</ele>
<time>2026-09-04T06:33:42Z</time>
</trkpt>
<trkpt lat="45.299990000" lon="-74.028690000">
<ele>0</ele>
<time>2026-09-04T06:33:43Z</time>
</trkpt>
<trkpt lat="45.300010000" lon="-74.028410000">
<ele>0</ele>
<time>2026-09-04T06:33:44Z</time>
</trkpt>
<trkpt lat="45.300030000" lon="-74.027950000">
<ele>0</ele>
<time>2026-09-04T06:33:45Z</time>
</trkpt>
<trkpt lat="45.300010000" lon="-74.024970000">
<ele>0</ele>
<time>2026-09-04T06:33:46Z</time>
</trkpt>
<trkpt lat="45.299920000" lon="-74.014830000">
<ele>0</ele>
<time>2026-09-04T06:33:47Z</time>
</trkpt>
<trkpt lat="45.299870000" lon="-74.009960000">
<ele>0</ele>
<time>2026-09-04T06:33:48Z</time>
</trkpt>
<trkpt lat="45.299870000" lon="-74.009960000">
<ele>0</ele>
<time>2026-09-04T06:33:49Z</time>
</trkpt>
<trkpt lat="45.299860000" lon="-74.008960000">
<ele>0</ele>
<time>2026-09-04T06:33:50Z</time>
</trkpt>
<trkpt lat="45.299870000" lon="-74.008030000">
<ele>0</ele>
<time>2026-09-04T06:33:51Z</time>
</trkpt>
<trkpt lat="45.299900000" lon="-74.007630000">
<ele>0</ele>
<time>2026-09-04T06:33:52Z</time>
</trkpt>
<trkpt lat="45.300000000" lon="-74.006680000">
<ele>0</ele>
<time>2026-09-04T06:33:53Z</time>
</trkpt>
<trkpt lat="45.300330000" lon="-74.004560000">
<ele>0</ele>
<time>2026-09-04T06:33:54Z</time>
</trkpt>
<trkpt lat="45.300450000" lon="-74.003790000">
<ele>0</ele>
<time>2026-09-04T06:33:55Z</time>
</trkpt>
<trkpt lat="45.300650000" lon="-74.002540000">
<ele>0</ele>
<time>2026-09-04T06:33:56Z</time>
</trkpt>
<trkpt lat="45.300850000" lon="-74.001490000">
<ele>0</ele>
<time>2026-09-04T06:33:57Z</time>
</trkpt>
<trkpt lat="45.301240000" lon="-73.999850000">
<ele>0</ele>
<time>2026-09-04T06:33:58Z</time>
</trkpt>
<trkpt lat="45.302440000" lon="-73.995420000">
<ele>0</ele>
<time>2026-09-04T06:33:59Z</time>
</trkpt>
<trkpt lat="45.304150000" lon="-73.989070000">
<ele>0</ele>
<time>2026-09-04T06:34:00Z</time>
</trkpt>
<trkpt lat="45.304440000" lon="-73.988160000">
<ele>0</ele>
<time>2026-09-04T06:34:01Z</time>
</trkpt>
<trkpt lat="45.304550000" lon="-73.987870000">
<ele>0</ele>
<time>2026-09-04T06:34:02Z</time>
</trkpt>
<trkpt lat="45.304830000" lon="-73.987220000">
<ele>0</ele>
<time>2026-09-04T06:34:03Z</time>
</trkpt>
<trkpt lat="45.304950000" lon="-73.986990000">
<ele>0</ele>
<time>2026-09-04T06:34:04Z</time>
</trkpt>
<trkpt lat="45.304950000" lon="-73.986990000">
<ele>0</ele>
<time>2026-09-04T06:34:05Z</time>
</trkpt>
<trkpt lat="45.305310000" lon="-73.986340000">
<ele>0</ele>
<time>2026-09-04T06:34:06Z</time>
</trkpt>
<trkpt lat="45.305890000" lon="-73.985440000">
<ele>0</ele>
<time>2026-09-04T06:34:07Z</time>
</trkpt>
<trkpt lat="45.307940000" lon="-73.982320000">
<ele>0</ele>
<time>2026-09-04T06:34:08Z</time>
</trkpt>
<trkpt lat="45.308460000" lon="-73.981390000">
<ele>0</ele>
<time>2026-09-04T06:34:09Z</time>
</trkpt>
<trkpt lat="45.309030000" lon="-73.980210000">
<ele>0</ele>
<time>2026-09-04T06:34:10Z</time>
</trkpt>
<trkpt lat="45.311280000" lon="-73.974280000">
<ele>0</ele>
<time>2026-09-04T06:34:11Z</time>
</trkpt>
<trkpt lat="45.312850000" lon="-73.970140000">
<ele>0</ele>
<time>2026-09-04T06:34:12Z</time>
</trkpt>
<trkpt lat="45.313170000" lon="-73.969280000">
<ele>0</ele>
<time>2026-09-04T06:34:13Z</time>
</trkpt>
<trkpt lat="45.313300000" lon="-73.968860000">
<ele>0</ele>
<time>2026-09-04T06:34:14Z</time>
</trkpt>
<trkpt lat="45.313480000" lon="-73.968130000">
<ele>0</ele>
<time>2026-09-04T06:34:15Z</time>
</trkpt>
<trkpt lat="45.313540000" lon="-73.967790000">
<ele>0</ele>
<time>2026-09-04T06:34:16Z</time>
</trkpt>
<trkpt lat="45.313630000" lon="-73.967240000">
<ele>0</ele>
<time>2026-09-04T06:34:17Z</time>
</trkpt>
<trkpt lat="45.313750000" lon="-73.966110000">
<ele>0</ele>
<time>2026-09-04T06:34:18Z</time>
</trkpt>
<trkpt lat="45.313840000" lon="-73.964970000">
<ele>0</ele>
<time>2026-09-04T06:34:19Z</time>
</trkpt>
<trkpt lat="45.314030000" lon="-73.962870000">
<ele>0</ele>
<time>2026-09-04T06:34:20Z</time>
</trkpt>
<trkpt lat="45.314130000" lon="-73.961760000">
<ele>0</ele>
<time>2026-09-04T06:34:21Z</time>
</trkpt>
<trkpt lat="45.314130000" lon="-73.961760000">
<ele>0</ele>
<time>2026-09-04T06:34:22Z</time>
</trkpt>
<trkpt lat="45.314970000" lon="-73.952270000">
<ele>0</ele>
<time>2026-09-04T06:34:23Z</time>
</trkpt>
<trkpt lat="45.315160000" lon="-73.950250000">
<ele>0</ele>
<time>2026-09-04T06:34:24Z</time>
</trkpt>
<trkpt lat="45.315240000" lon="-73.949270000">
<ele>0</ele>
<time>2026-09-04T06:34:25Z</time>
</trkpt>
<trkpt lat="45.315610000" lon="-73.945690000">
<ele>0</ele>
<time>2026-09-04T06:34:26Z</time>
</trkpt>
<trkpt lat="45.315670000" lon="-73.945070000">
<ele>0</ele>
<time>2026-09-04T06:34:27Z</time>
</trkpt>
<trkpt lat="45.316140000" lon="-73.940470000">
<ele>0</ele>
<time>2026-09-04T06:34:28Z</time>
</trkpt>
<trkpt lat="45.316310000" lon="-73.938700000">
<ele>0</ele>
<time>2026-09-04T06:34:29Z</time>
</trkpt>
<trkpt lat="45.316540000" lon="-73.936260000">
<ele>0</ele>
<time>2026-09-04T06:34:30Z</time>
</trkpt>
<trkpt lat="45.316580000" lon="-73.935590000">
<ele>0</ele>
<time>2026-09-04T06:34:31Z</time>
</trkpt>
<trkpt lat="45.316590000" lon="-73.935020000">
<ele>0</ele>
<time>2026-09-04T06:34:32Z</time>
</trkpt>
<trkpt lat="45.316550000" lon="-73.934040000">
<ele>0</ele>
<time>2026-09-04T06:34:33Z</time>
</trkpt>
<trkpt lat="45.316490000" lon="-73.933300000">
<ele>0</ele>
<time>2026-09-04T06:34:34Z</time>
</trkpt>
<trkpt lat="45.316490000" lon="-73.933300000">
<ele>0</ele>
<time>2026-09-04T06:34:35Z</time>
</trkpt>
<trkpt lat="45.316350000" lon="-73.932290000">
<ele>0</ele>
<time>2026-09-04T06:34:36Z</time>
</trkpt>
<trkpt lat="45.316240000" lon="-73.931590000">
<ele>0</ele>
<time>2026-09-04T06:34:37Z</time>
</trkpt>
<trkpt lat="45.316170000" lon="-73.931100000">
<ele>0</ele>
<time>2026-09-04T06:34:38Z</time>
</trkpt>
<trkpt lat="45.316140000" lon="-73.931060000">
<ele>0</ele>
<time>2026-09-04T06:34:39Z</time>
</trkpt>
<trkpt lat="45.316120000" lon="-73.931020000">
<ele>0</ele>
<time>2026-09-04T06:34:40Z</time>
</trkpt>
<trkpt lat="45.315970000" lon="-73.930110000">
<ele>0</ele>
<time>2026-09-04T06:34:41Z</time>
</trkpt>
<trkpt lat="45.315810000" lon="-73.929170000">
<ele>0</ele>
<time>2026-09-04T06:34:42Z</time>
</trkpt>
<trkpt lat="45.315810000" lon="-73.929170000">
<ele>0</ele>
<time>2026-09-04T06:34:43Z</time>
</trkpt>
<trkpt lat="45.315650000" lon="-73.928330000">
<ele>0</ele>
<time>2026-09-04T06:34:44Z</time>
</trkpt>
<trkpt lat="45.315650000" lon="-73.928330000">
<ele>0</ele>
<time>2026-09-04T06:34:45Z</time>
</trkpt>
<trkpt lat="45.315600000" lon="-73.927990000">
<ele>0</ele>
<time>2026-09-04T06:34:46Z</time>
</trkpt>
<trkpt lat="45.315600000" lon="-73.927990000">
<ele>0</ele>
<time>2026-09-04T06:34:47Z</time>
</trkpt>
<trkpt lat="45.315570000" lon="-73.927830000">
<ele>0</ele>
<time>2026-09-04T06:34:48Z</time>
</trkpt>
<trkpt lat="45.315570000" lon="-73.927830000">
<ele>0</ele>
<time>2026-09-04T06:34:49Z</time>
</trkpt>
<trkpt lat="45.315640000" lon="-73.927470000">
<ele>0</ele>
<time>2026-09-04T06:34:50Z</time>
</trkpt>
<trkpt lat="45.315710000" lon="-73.927170000">
<ele>0</ele>
<time>2026-09-04T06:34:51Z</time>
</trkpt>
<trkpt lat="45.315900000" lon="-73.926630000">
<ele>0</ele>
<time>2026-09-04T06:34:52Z</time>
</trkpt>
<trkpt lat="45.316010000" lon="-73.925970000">
<ele>0</ele>
<time>2026-09-04T06:34:53Z</time>
</trkpt>
<trkpt lat="45.316020000" lon="-73.925800000">
<ele>0</ele>
<time>2026-09-04T06:34:54Z</time>
</trkpt>
<trkpt lat="45.315980000" lon="-73.925780000">
<ele>0</ele>
<time>2026-09-04T06:34:55Z</time>
</trkpt>
<trkpt lat="45.315960000" lon="-73.925760000">
<ele>0</ele>
<time>2026-09-04T06:34:56Z</time>
</trkpt>
<trkpt lat="45.315950000" lon="-73.925740000">
<ele>0</ele>
<time>2026-09-04T06:34:57Z</time>
</trkpt>
<trkpt lat="45.315940000" lon="-73.925730000">
<ele>0</ele>
<time>2026-09-04T06:34:58Z</time>
</trkpt>
<trkpt lat="45.315750000" lon="-73.925880000">
<ele>0</ele>
<time>2026-09-04T06:34:59Z</time>
</trkpt>
<trkpt lat="45.315360000" lon="-73.926180000">
<ele>0</ele>
<time>2026-09-04T06:35:00Z</time>
</trkpt>
<trkpt lat="45.315290000" lon="-73.925770000">
<ele>0</ele>
<time>2026-09-04T06:35:01Z</time>
</trkpt>
<trkpt lat="45.315260000" lon="-73.925580000">
<ele>0</ele>
<time>2026-09-04T06:35:02Z</time>
</trkpt>
<trkpt lat="45.315260000" lon="-73.925580000">
<ele>0</ele>
<time>2026-09-04T06:35:03Z</time>
</trkpt>
<trkpt lat="45.314880000" lon="-73.923440000">
<ele>0</ele>
<time>2026-09-04T06:35:04Z</time>
</trkpt>
<trkpt lat="45.314760000" lon="-73.922590000">
<ele>0</ele>
<time>2026-09-04T06:35:05Z</time>
</trkpt>
<trkpt lat="45.314690000" lon="-73.921650000">
<ele>0</ele>
<time>2026-09-04T06:35:06Z</time>
</trkpt>
<trkpt lat="45.314690000" lon="-73.921650000">
<ele>0</ele>
<time>2026-09-04T06:35:07Z</time>
</trkpt>
<trkpt lat="45.314700000" lon="-73.920850000">
<ele>0</ele>
<time>2026-09-04T06:35:08Z</time>
</trkpt>
<trkpt lat="45.314740000" lon="-73.920270000">
<ele>0</ele>
<time>2026-09-04T06:35:09Z</time>
</trkpt>
<trkpt lat="45.314890000" lon="-73.919380000">
<ele>0</ele>
<time>2026-09-04T06:35:10Z</time>
</trkpt>
<trkpt lat="45.315040000" lon="-73.918680000">
<ele>0</ele>
<time>2026-09-04T06:35:11Z</time>
</trkpt>
<trkpt lat="45.315110000" lon="-73.918430000">
<ele>0</ele>
<time>2026-09-04T06:35:12Z</time>
</trkpt>
<trkpt lat="45.315110000" lon="-73.918430000">
<ele>0</ele>
<time>2026-09-04T06:35:13Z</time>
</trkpt>
<trkpt lat="45.315280000" lon="-73.917920000">
<ele>0</ele>
<time>2026-09-04T06:35:14Z</time>
</trkpt>
<trkpt lat="45.315540000" lon="-73.917260000">
<ele>0</ele>
<time>2026-09-04T06:35:15Z</time>
</trkpt>
<trkpt lat="45.316100000" lon="-73.915940000">
<ele>0</ele>
<time>2026-09-04T06:35:16Z</time>
</trkpt>
<trkpt lat="45.316390000" lon="-73.915270000">
<ele>0</ele>
<time>2026-09-04T06:35:17Z</time>
</trkpt>
<trkpt lat="45.316500000" lon="-73.914910000">
<ele>0</ele>
<time>2026-09-04T06:35:18Z</time>
</trkpt>
<trkpt lat="45.316620000" lon="-73.914310000">
<ele>0</ele>
<time>2026-09-04T06:35:19Z</time>
</trkpt>
<trkpt lat="45.316740000" lon="-73.913320000">
<ele>0</ele>
<time>2026-09-04T06:35:20Z</time>
</trkpt>
<trkpt lat="45.316750000" lon="-73.913040000">
<ele>0</ele>
<time>2026-09-04T06:35:21Z</time>
</trkpt>
<trkpt lat="45.316720000" lon="-73.912890000">
<ele>0</ele>
<time>2026-09-04T06:35:22Z</time>
</trkpt>
<trkpt lat="45.316730000" lon="-73.912430000">
<ele>0</ele>
<time>2026-09-04T06:35:23Z</time>
</trkpt>
<trkpt lat="45.316730000" lon="-73.912430000">
<ele>0</ele>
<time>2026-09-04T06:35:24Z</time>
</trkpt>
<trkpt lat="45.316690000" lon="-73.911520000">
<ele>0</ele>
<time>2026-09-04T06:35:25Z</time>
</trkpt>
<trkpt lat="45.316620000" lon="-73.910870000">
<ele>0</ele>
<time>2026-09-04T06:35:26Z</time>
</trkpt>
<trkpt lat="45.316480000" lon="-73.909960000">
<ele>0</ele>
<time>2026-09-04T06:35:27Z</time>
</trkpt>
<trkpt lat="45.316310000" lon="-73.909070000">
<ele>0</ele>
<time>2026-09-04T06:35:28Z</time>
</trkpt>
<trkpt lat="45.315590000" lon="-73.905770000">
<ele>0</ele>
<time>2026-09-04T06:35:29Z</time>
</trkpt>
<trkpt lat="45.314940000" lon="-73.902770000">
<ele>0</ele>
<time>2026-09-04T06:35:30Z</time>
</trkpt>
<trkpt lat="45.314930000" lon="-73.902740000">
<ele>0</ele>
<time>2026-09-04T06:35:31Z</time>
</trkpt>
<trkpt lat="45.314590000" lon="-73.901370000">
<ele>0</ele>
<time>2026-09-04T06:35:32Z</time>
</trkpt>
<trkpt lat="45.314530000" lon="-73.901170000">
<ele>0</ele>
<time>2026-09-04T06:35:33Z</time>
</trkpt>
<trkpt lat="45.314470000" lon="-73.901100000">
<ele>0</ele>
<time>2026-09-04T06:35:34Z</time>
</trkpt>
<trkpt lat="45.314210000" lon="-73.900290000">
<ele>0</ele>
<time>2026-09-04T06:35:35Z</time>
</trkpt>
<trkpt lat="45.314050000" lon="-73.899640000">
<ele>0</ele>
<time>2026-09-04T06:35:36Z</time>
</trkpt>
<trkpt lat="45.313950000" lon="-73.899110000">
<ele>0</ele>
<time>2026-09-04T06:35:37Z</time>
</trkpt>
<trkpt lat="45.313860000" lon="-73.898090000">
<ele>0</ele>
<time>2026-09-04T06:35:38Z</time>
</trkpt>
<trkpt lat="45.313830000" lon="-73.897920000">
<ele>0</ele>
<time>2026-09-04T06:35:39Z</time>
</trkpt>
<trkpt lat="45.313860000" lon="-73.897070000">
<ele>0</ele>
<time>2026-09-04T06:35:40Z</time>
</trkpt>
<trkpt lat="45.313870000" lon="-73.896910000">
<ele>0</ele>
<time>2026-09-04T06:35:41Z</time>
</trkpt>
<trkpt lat="45.313870000" lon="-73.896910000">
<ele>0</ele>
<time>2026-09-04T06:35:42Z</time>
</trkpt>
<trkpt lat="45.314000000" lon="-73.893230000">
<ele>0</ele>
<time>2026-09-04T06:35:43Z</time>
</trkpt>
<trkpt lat="45.314050000" lon="-73.890810000">
<ele>0</ele>
<time>2026-09-04T06:35:44Z</time>
</trkpt>
<trkpt lat="45.314090000" lon="-73.887650000">
<ele>0</ele>
<time>2026-09-04T06:35:45Z</time>
</trkpt>
<trkpt lat="45.314130000" lon="-73.887200000">
<ele>0</ele>
<time>2026-09-04T06:35:46Z</time>
</trkpt>
<trkpt lat="45.314210000" lon="-73.883760000">
<ele>0</ele>
<time>2026-09-04T06:35:47Z</time>
</trkpt>
<trkpt lat="45.314270000" lon="-73.881020000">
<ele>0</ele>
<time>2026-09-04T06:35:48Z</time>
</trkpt>
<trkpt lat="45.314310000" lon="-73.880910000">
<ele>0</ele>
<time>2026-09-04T06:35:49Z</time>
</trkpt>
<trkpt lat="45.314310000" lon="-73.880760000">
<ele>0</ele>
<time>2026-09-04T06:35:50Z</time>
</trkpt>
<trkpt lat="45.314310000" lon="-73.880620000">
<ele>0</ele>
<time>2026-09-04T06:35:51Z</time>
</trkpt>
<trkpt lat="45.314370000" lon="-73.879880000">
<ele>0</ele>
<time>2026-09-04T06:35:52Z</time>
</trkpt>
<trkpt lat="45.314470000" lon="-73.879280000">
<ele>0</ele>
<time>2026-09-04T06:35:53Z</time>
</trkpt>
<trkpt lat="45.314580000" lon="-73.878880000">
<ele>0</ele>
<time>2026-09-04T06:35:54Z</time>
</trkpt>
<trkpt lat="45.314570000" lon="-73.878750000">
<ele>0</ele>
<time>2026-09-04T06:35:55Z</time>
</trkpt>
<trkpt lat="45.314550000" lon="-73.878690000">
<ele>0</ele>
<time>2026-09-04T06:35:56Z</time>
</trkpt>
<trkpt lat="45.314460000" lon="-73.878550000">
<ele>0</ele>
<time>2026-09-04T06:35:57Z</time>
</trkpt>
<trkpt lat="45.313380000" lon="-73.878650000">
<ele>0</ele>
<time>2026-09-04T06:35:58Z</time>
</trkpt>
<trkpt lat="45.313930000" lon="-73.876560000">
<ele>0</ele>
<time>2026-09-04T06:35:59Z</time>
</trkpt>
<trkpt lat="45.313880000" lon="-73.876540000">
<ele>0</ele>
<time>2026-09-04T06:36:00Z</time>
</trkpt>
<trkpt lat="45.313880000" lon="-73.876540000">
<ele>0</ele>
<time>2026-09-04T06:36:01Z</time>
</trkpt>
<trkpt lat="45.313930000" lon="-73.876560000">
<ele>0</ele>
<time>2026-09-04T06:36:02Z</time>
</trkpt>
<trkpt lat="45.313970000" lon="-73.876380000">
<ele>0</ele>
<time>2026-09-04T06:36:03Z</time>
</trkpt>
<trkpt lat="45.314220000" lon="-73.875420000">
<ele>0</ele>
<time>2026-09-04T06:36:04Z</time>
</trkpt>
<trkpt lat="45.314520000" lon="-73.874250000">
<ele>0</ele>
<time>2026-09-04T06:36:05Z</time>
</trkpt>
<trkpt lat="45.315120000" lon="-73.871960000">
<ele>0</ele>
<time>2026-09-04T06:36:06Z</time>
</trkpt>
<trkpt lat="45.315750000" lon="-73.869600000">
<ele>0</ele>
<time>2026-09-04T06:36:07Z</time>
</trkpt>
<trkpt lat="45.316060000" lon="-73.868440000">
<ele>0</ele>
<time>2026-09-04T06:36:08Z</time>
</trkpt>
<trkpt lat="45.316230000" lon="-73.867660000">
<ele>0</ele>
<time>2026-09-04T06:36:09Z</time>
</trkpt>
<trkpt lat="45.316320000" lon="-73.867250000">
<ele>0</ele>
<time>2026-09-04T06:36:10Z</time>
</trkpt>
<trkpt lat="45.316380000" lon="-73.866820000">
<ele>0</ele>
<time>2026-09-04T06:36:11Z</time>
</trkpt>
<trkpt lat="45.316470000" lon="-73.866060000">
<ele>0</ele>
<time>2026-09-04T06:36:12Z</time>
</trkpt>
<trkpt lat="45.316540000" lon="-73.864630000">
<ele>0</ele>
<time>2026-09-04T06:36:13Z</time>
</trkpt>
<trkpt lat="45.316650000" lon="-73.861540000">
<ele>0</ele>
<time>2026-09-04T06:36:14Z</time>
</trkpt>
<trkpt lat="45.316650000" lon="-73.861540000">
<ele>0</ele>
<time>2026-09-04T06:36:15Z</time>
</trkpt>
<trkpt lat="45.316680000" lon="-73.860750000">
<ele>0</ele>
<time>2026-09-04T06:36:16Z</time>
</trkpt>
<trkpt lat="45.316760000" lon="-73.859530000">
<ele>0</ele>
<time>2026-09-04T06:36:17Z</time>
</trkpt>
<trkpt lat="45.317020000" lon="-73.855670000">
<ele>0</ele>
<time>2026-09-04T06:36:18Z</time>
</trkpt>
<trkpt lat="45.317090000" lon="-73.854940000">
<ele>0</ele>
<time>2026-09-04T06:36:19Z</time>
</trkpt>
<trkpt lat="45.317190000" lon="-73.854240000">
<ele>0</ele>
<time>2026-09-04T06:36:20Z</time>
</trkpt>
<trkpt lat="45.317320000" lon="-73.853500000">
<ele>0</ele>
<time>2026-09-04T06:36:21Z</time>
</trkpt>
<trkpt lat="45.317660000" lon="-73.851950000">
<ele>0</ele>
<time>2026-09-04T06:36:22Z</time>
</trkpt>
<trkpt lat="45.317980000" lon="-73.850440000">
<ele>0</ele>
<time>2026-09-04T06:36:23Z</time>
</trkpt>
<trkpt lat="45.318130000" lon="-73.849680000">
<ele>0</ele>
<time>2026-09-04T06:36:24Z</time>
</trkpt>
<trkpt lat="45.318280000" lon="-73.848750000">
<ele>0</ele>
<time>2026-09-04T06:36:25Z</time>
</trkpt>
<trkpt lat="45.318470000" lon="-73.847480000">
<ele>0</ele>
<time>2026-09-04T06:36:26Z</time>
</trkpt>
<trkpt lat="45.318470000" lon="-73.847480000">
<ele>0</ele>
<time>2026-09-04T06:36:27Z</time>
</trkpt>
<trkpt lat="45.318720000" lon="-73.845740000">
<ele>0</ele>
<time>2026-09-04T06:36:28Z</time>
</trkpt>
<trkpt lat="45.318720000" lon="-73.845740000">
<ele>0</ele>
<time>2026-09-04T06:36:29Z</time>
</trkpt>
<trkpt lat="45.318730000" lon="-73.845700000">
<ele>0</ele>
<time>2026-09-04T06:36:30Z</time>
</trkpt>
<trkpt lat="45.318960000" lon="-73.845680000">
<ele>0</ele>
<time>2026-09-04T06:36:31Z</time>
</trkpt>
<trkpt lat="45.319050000" lon="-73.845590000">
<ele>0</ele>
<time>2026-09-04T06:36:32Z</time>
</trkpt>
<trkpt lat="45.319280000" lon="-73.845180000">
<ele>0</ele>
<time>2026-09-04T06:36:33Z</time>
</trkpt>
<trkpt lat="45.319660000" lon="-73.844520000">
<ele>0</ele>
<time>2026-09-04T06:36:34Z</time>
</trkpt>
<trkpt lat="45.319660000" lon="-73.844520000">
<ele>0</ele>
<time>2026-09-04T06:36:35Z</time>
</trkpt>
<trkpt lat="45.320570000" lon="-73.842790000">
<ele>0</ele>
<time>2026-09-04T06:36:36Z</time>
</trkpt>
<trkpt lat="45.322240000" lon="-73.839810000">
<ele>0</ele>
<time>2026-09-04T06:36:37Z</time>
</trkpt>
<trkpt lat="45.323140000" lon="-73.838170000">
<ele>0</ele>
<time>2026-09-04T06:36:38Z</time>
</trkpt>
<trkpt lat="45.323980000" lon="-73.836590000">
<ele>0</ele>
<time>2026-09-04T06:36:39Z</time>
</trkpt>
<trkpt lat="45.324030000" lon="-73.836450000">
<ele>0</ele>
<time>2026-09-04T06:36:40Z</time>
</trkpt>
<trkpt lat="45.324190000" lon="-73.835920000">
<ele>0</ele>
<time>2026-09-04T06:36:41Z</time>
</trkpt>
<trkpt lat="45.324270000" lon="-73.835700000">
<ele>0</ele>
<time>2026-09-04T06:36:42Z</time>
</trkpt>
<trkpt lat="45.324770000" lon="-73.834710000">
<ele>0</ele>
<time>2026-09-04T06:36:43Z</time>
</trkpt>
<trkpt lat="45.324900000" lon="-73.834450000">
<ele>0</ele>
<time>2026-09-04T06:36:44Z</time>
</trkpt>
<trkpt lat="45.325200000" lon="-73.833790000">
<ele>0</ele>
<time>2026-09-04T06:36:45Z</time>
</trkpt>
<trkpt lat="45.325250000" lon="-73.833620000">
<ele>0</ele>
<time>2026-09-04T06:36:46Z</time>
</trkpt>
<trkpt lat="45.325360000" lon="-73.832920000">
<ele>0</ele>
<time>2026-09-04T06:36:47Z</time>
</trkpt>
<trkpt lat="45.325460000" lon="-73.832470000">
<ele>0</ele>
<time>2026-09-04T06:36:48Z</time>
</trkpt>
<trkpt lat="45.325610000" lon="-73.832140000">
<ele>0</ele>
<time>2026-09-04T06:36:49Z</time>
</trkpt>
<trkpt lat="45.325800000" lon="-73.831770000">
<ele>0</ele>
<time>2026-09-04T06:36:50Z</time>
</trkpt>
<trkpt lat="45.325800000" lon="-73.831770000">
<ele>0</ele>
<time>2026-09-04T06:36:51Z</time>
</trkpt>
<trkpt lat="45.327090000" lon="-73.829240000">
<ele>0</ele>
<time>2026-09-04T06:36:52Z</time>
</trkpt>
<trkpt lat="45.327490000" lon="-73.828510000">
<ele>0</ele>
<time>2026-09-04T06:36:53Z</time>
</trkpt>
<trkpt lat="45.327660000" lon="-73.828140000">
<ele>0</ele>
<time>2026-09-04T06:36:54Z</time>
</trkpt>
<trkpt lat="45.328160000" lon="-73.827190000">
<ele>0</ele>
<time>2026-09-04T06:36:55Z</time>
</trkpt>
<trkpt lat="45.328580000" lon="-73.826540000">
<ele>0</ele>
<time>2026-09-04T06:36:56Z</time>
</trkpt>
<trkpt lat="45.328980000" lon="-73.826090000">
<ele>0</ele>
<time>2026-09-04T06:36:57Z</time>
</trkpt>
<trkpt lat="45.329220000" lon="-73.825850000">
<ele>0</ele>
<time>2026-09-04T06:36:58Z</time>
</trkpt>
<trkpt lat="45.329300000" lon="-73.825780000">
<ele>0</ele>
<time>2026-09-04T06:36:59Z</time>
</trkpt>
<trkpt lat="45.329460000" lon="-73.825690000">
<ele>0</ele>
<time>2026-09-04T06:37:00Z</time>
</trkpt>
<trkpt lat="45.329610000" lon="-73.825600000">
<ele>0</ele>
<time>2026-09-04T06:37:01Z</time>
</trkpt>
<trkpt lat="45.329880000" lon="-73.825330000">
<ele>0</ele>
<time>2026-09-04T06:37:02Z</time>
</trkpt>
<trkpt lat="45.330160000" lon="-73.824920000">
<ele>0</ele>
<time>2026-09-04T06:37:03Z</time>
</trkpt>
<trkpt lat="45.330350000" lon="-73.824570000">
<ele>0</ele>
<time>2026-09-04T06:37:04Z</time>
</trkpt>
<trkpt lat="45.330520000" lon="-73.824300000">
<ele>0</ele>
<time>2026-09-04T06:37:05Z</time>
</trkpt>
<trkpt lat="45.330520000" lon="-73.824300000">
<ele>0</ele>
<time>2026-09-04T06:37:06Z</time>
</trkpt>
<trkpt lat="45.330920000" lon="-73.823560000">
<ele>0</ele>
<time>2026-09-04T06:37:07Z</time>
</trkpt>
<trkpt lat="45.331250000" lon="-73.822610000">
<ele>0</ele>
<time>2026-09-04T06:37:08Z</time>
</trkpt>
<trkpt lat="45.331370000" lon="-73.822340000">
<ele>0</ele>
<time>2026-09-04T06:37:09Z</time>
</trkpt>
<trkpt lat="45.331640000" lon="-73.821890000">
<ele>0</ele>
<time>2026-09-04T06:37:10Z</time>
</trkpt>
<trkpt lat="45.331980000" lon="-73.821320000">
<ele>0</ele>
<time>2026-09-04T06:37:11Z</time>
</trkpt>
<trkpt lat="45.332620000" lon="-73.820280000">
<ele>0</ele>
<time>2026-09-04T06:37:12Z</time>
</trkpt>
<trkpt lat="45.332760000" lon="-73.820100000">
<ele>0</ele>
<time>2026-09-04T06:37:13Z</time>
</trkpt>
<trkpt lat="45.332930000" lon="-73.819930000">
<ele>0</ele>
<time>2026-09-04T06:37:14Z</time>
</trkpt>
<trkpt lat="45.333160000" lon="-73.819710000">
<ele>0</ele>
<time>2026-09-04T06:37:15Z</time>
</trkpt>
<trkpt lat="45.333570000" lon="-73.819240000">
<ele>0</ele>
<time>2026-09-04T06:37:16Z</time>
</trkpt>
<trkpt lat="45.333740000" lon="-73.819060000">
<ele>0</ele>
<time>2026-09-04T06:37:17Z</time>
</trkpt>
<trkpt lat="45.334790000" lon="-73.818250000">
<ele>0</ele>
<time>2026-09-04T06:37:18Z</time>
</trkpt>
<trkpt lat="45.335640000" lon="-73.817750000">
<ele>0</ele>
<time>2026-09-04T06:37:19Z</time>
</trkpt>
<trkpt lat="45.335720000" lon="-73.817700000">
<ele>0</ele>
<time>2026-09-04T06:37:20Z</time>
</trkpt>
<trkpt lat="45.336000000" lon="-73.817420000">
<ele>0</ele>
<time>2026-09-04T06:37:21Z</time>
</trkpt>
<trkpt lat="45.336310000" lon="-73.817120000">
<ele>0</ele>
<time>2026-09-04T06:37:22Z</time>
</trkpt>
<trkpt lat="45.336690000" lon="-73.816770000">
<ele>0</ele>
<time>2026-09-04T06:37:23Z</time>
</trkpt>
<trkpt lat="45.336850000" lon="-73.816590000">
<ele>0</ele>
<time>2026-09-04T06:37:24Z</time>
</trkpt>
<trkpt lat="45.337260000" lon="-73.816000000">
<ele>0</ele>
<time>2026-09-04T06:37:25Z</time>
</trkpt>
<trkpt lat="45.337750000" lon="-73.815200000">
<ele>0</ele>
<time>2026-09-04T06:37:26Z</time>
</trkpt>
<trkpt lat="45.338000000" lon="-73.814820000">
<ele>0</ele>
<time>2026-09-04T06:37:27Z</time>
</trkpt>
<trkpt lat="45.338460000" lon="-73.814040000">
<ele>0</ele>
<time>2026-09-04T06:37:28Z</time>
</trkpt>
<trkpt lat="45.338560000" lon="-73.813880000">
<ele>0</ele>
<time>2026-09-04T06:37:29Z</time>
</trkpt>
<trkpt lat="45.338780000" lon="-73.813580000">
<ele>0</ele>
<time>2026-09-04T06:37:30Z</time>
</trkpt>
<trkpt lat="45.339110000" lon="-73.813260000">
<ele>0</ele>
<time>2026-09-04T06:37:31Z</time>
</trkpt>
<trkpt lat="45.339450000" lon="-73.812950000">
<ele>0</ele>
<time>2026-09-04T06:37:32Z</time>
</trkpt>
<trkpt lat="45.339500000" lon="-73.812890000">
<ele>0</ele>
<time>2026-09-04T06:37:33Z</time>
</trkpt>
<trkpt lat="45.339500000" lon="-73.812890000">
<ele>0</ele>
<time>2026-09-04T06:37:34Z</time>
</trkpt>
<trkpt lat="45.339800000" lon="-73.812550000">
<ele>0</ele>
<time>2026-09-04T06:37:35Z</time>
</trkpt>
<trkpt lat="45.340010000" lon="-73.812290000">
<ele>0</ele>
<time>2026-09-04T06:37:36Z</time>
</trkpt>
<trkpt lat="45.340170000" lon="-73.812060000">
<ele>0</ele>
<time>2026-09-04T06:37:37Z</time>
</trkpt>
<trkpt lat="45.340260000" lon="-73.811950000">
<ele>0</ele>
<time>2026-09-04T06:37:38Z</time>
</trkpt>
<trkpt lat="45.340470000" lon="-73.811780000">
<ele>0</ele>
<time>2026-09-04T06:37:39Z</time>
</trkpt>
<trkpt lat="45.340780000" lon="-73.811530000">
<ele>0</ele>
<time>2026-09-04T06:37:40Z</time>
</trkpt>
<trkpt lat="45.340990000" lon="-73.811350000">
<ele>0</ele>
<time>2026-09-04T06:37:41Z</time>
</trkpt>
<trkpt lat="45.341220000" lon="-73.811220000">
<ele>0</ele>
<time>2026-09-04T06:37:42Z</time>
</trkpt>
<trkpt lat="45.341650000" lon="-73.811040000">
<ele>0</ele>
<time>2026-09-04T06:37:43Z</time>
</trkpt>
<trkpt lat="45.341770000" lon="-73.810990000">
<ele>0</ele>
<time>2026-09-04T06:37:44Z</time>
</trkpt>
<trkpt lat="45.341960000" lon="-73.810850000">
<ele>0</ele>
<time>2026-09-04T06:37:45Z</time>
</trkpt>
<trkpt lat="45.342070000" lon="-73.810760000">
<ele>0</ele>
<time>2026-09-04T06:37:46Z</time>
</trkpt>
<trkpt lat="45.342160000" lon="-73.810670000">
<ele>0</ele>
<time>2026-09-04T06:37:47Z</time>
</trkpt>
<trkpt lat="45.342490000" lon="-73.810240000">
<ele>0</ele>
<time>2026-09-04T06:37:48Z</time>
</trkpt>
<trkpt lat="45.343230000" lon="-73.809180000">
<ele>0</ele>
<time>2026-09-04T06:37:49Z</time>
</trkpt>
<trkpt lat="45.343450000" lon="-73.808820000">
<ele>0</ele>
<time>2026-09-04T06:37:50Z</time>
</trkpt>
<trkpt lat="45.343580000" lon="-73.808480000">
<ele>0</ele>
<time>2026-09-04T06:37:51Z</time>
</trkpt>
<trkpt lat="45.343720000" lon="-73.808190000">
<ele>0</ele>
<time>2026-09-04T06:37:52Z</time>
</trkpt>
<trkpt lat="45.343850000" lon="-73.808030000">
<ele>0</ele>
<time>2026-09-04T06:37:53Z</time>
</trkpt>
<trkpt lat="45.344260000" lon="-73.807510000">
<ele>0</ele>
<time>2026-09-04T06:37:54Z</time>
</trkpt>
<trkpt lat="45.344420000" lon="-73.807300000">
<ele>0</ele>
<time>2026-09-04T06:37:55Z</time>
</trkpt>
<trkpt lat="45.344600000" lon="-73.807100000">
<ele>0</ele>
<time>2026-09-04T06:37:56Z</time>
</trkpt>
<trkpt lat="45.344940000" lon="-73.806780000">
<ele>0</ele>
<time>2026-09-04T06:37:57Z</time>
</trkpt>
<trkpt lat="45.345410000" lon="-73.806160000">
<ele>0</ele>
<time>2026-09-04T06:37:58Z</time>
</trkpt>
<trkpt lat="45.345610000" lon="-73.805910000">
<ele>0</ele>
<time>2026-09-04T06:37:59Z</time>
</trkpt>
<trkpt lat="45.346240000" lon="-73.805370000">
<ele>0</ele>
<time>2026-09-04T06:38:00Z</time>
</trkpt>
<trkpt lat="45.346600000" lon="-73.805140000">
<ele>0</ele>
<time>2026-09-04T06:38:01Z</time>
</trkpt>
<trkpt lat="45.346910000" lon="-73.805010000">
<ele>0</ele>
<time>2026-09-04T06:38:02Z</time>
</trkpt>
<trkpt lat="45.347080000" lon="-73.804890000">
<ele>0</ele>
<time>2026-09-04T06:38:03Z</time>
</trkpt>
<trkpt lat="45.347210000" lon="-73.804780000">
<ele>0</ele>
<time>2026-09-04T06:38:04Z</time>
</trkpt>
<trkpt lat="45.347780000" lon="-73.804160000">
<ele>0</ele>
<time>2026-09-04T06:38:05Z</time>
</trkpt>
<trkpt lat="45.348050000" lon="-73.803810000">
<ele>0</ele>
<time>2026-09-04T06:38:06Z</time>
</trkpt>
<trkpt lat="45.348630000" lon="-73.803110000">
<ele>0</ele>
<time>2026-09-04T06:38:07Z</time>
</trkpt>
<trkpt lat="45.349180000" lon="-73.802450000">
<ele>0</ele>
<time>2026-09-04T06:38:08Z</time>
</trkpt>
<trkpt lat="45.349650000" lon="-73.801990000">
<ele>0</ele>
<time>2026-09-04T06:38:09Z</time>
</trkpt>
<trkpt lat="45.349650000" lon="-73.801990000">
<ele>0</ele>
<time>2026-09-04T06:38:10Z</time>
</trkpt>
<trkpt lat="45.350190000" lon="-73.801230000">
<ele>0</ele>
<time>2026-09-04T06:38:11Z</time>
</trkpt>
<trkpt lat="45.350800000" lon="-73.800350000">
<ele>0</ele>
<time>2026-09-04T06:38:12Z</time>
</trkpt>
<trkpt lat="45.351100000" lon="-73.799810000">
<ele>0</ele>
<time>2026-09-04T06:38:13Z</time>
</trkpt>
<trkpt lat="45.351220000" lon="-73.799530000">
<ele>0</ele>
<time>2026-09-04T06:38:14Z</time>
</trkpt>
<trkpt lat="45.351340000" lon="-73.799020000">
<ele>0</ele>
<time>2026-09-04T06:38:15Z</time>
</trkpt>
<trkpt lat="45.351370000" lon="-73.798610000">
<ele>0</ele>
<time>2026-09-04T06:38:16Z</time>
</trkpt>
<trkpt lat="45.351330000" lon="-73.797960000">
<ele>0</ele>
<time>2026-09-04T06:38:17Z</time>
</trkpt>
<trkpt lat="45.351320000" lon="-73.797770000">
<ele>0</ele>
<time>2026-09-04T06:38:18Z</time>
</trkpt>
<trkpt lat="45.351370000" lon="-73.797600000">
<ele>0</ele>
<time>2026-09-04T06:38:19Z</time>
</trkpt>
<trkpt lat="45.351740000" lon="-73.796790000">
<ele>0</ele>
<time>2026-09-04T06:38:20Z</time>
</trkpt>
<trkpt lat="45.351960000" lon="-73.796410000">
<ele>0</ele>
<time>2026-09-04T06:38:21Z</time>
</trkpt>
<trkpt lat="45.352180000" lon="-73.796130000">
<ele>0</ele>
<time>2026-09-04T06:38:22Z</time>
</trkpt>
<trkpt lat="45.352570000" lon="-73.795600000">
<ele>0</ele>
<time>2026-09-04T06:38:23Z</time>
</trkpt>
<trkpt lat="45.352700000" lon="-73.795350000">
<ele>0</ele>
<time>2026-09-04T06:38:24Z</time>
</trkpt>
<trkpt lat="45.352700000" lon="-73.795350000">
<ele>0</ele>
<time>2026-09-04T06:38:25Z</time>
</trkpt>
<trkpt lat="45.352860000" lon="-73.795020000">
<ele>0</ele>
<time>2026-09-04T06:38:26Z</time>
</trkpt>
<trkpt lat="45.353010000" lon="-73.794780000">
<ele>0</ele>
<time>2026-09-04T06:38:27Z</time>
</trkpt>
<trkpt lat="45.353410000" lon="-73.794290000">
<ele>0</ele>
<time>2026-09-04T06:38:28Z</time>
</trkpt>
<trkpt lat="45.353680000" lon="-73.793940000">
<ele>0</ele>
<time>2026-09-04T06:38:29Z</time>
</trkpt>
<trkpt lat="45.354020000" lon="-73.793390000">
<ele>0</ele>
<time>2026-09-04T06:38:30Z</time>
</trkpt>
<trkpt lat="45.354290000" lon="-73.792880000">
<ele>0</ele>
<time>2026-09-04T06:38:31Z</time>
</trkpt>
<trkpt lat="45.354480000" lon="-73.792400000">
<ele>0</ele>
<time>2026-09-04T06:38:32Z</time>
</trkpt>
<trkpt lat="45.354750000" lon="-73.791470000">
<ele>0</ele>
<time>2026-09-04T06:38:33Z</time>
</trkpt>
<trkpt lat="45.355170000" lon="-73.790020000">
<ele>0</ele>
<time>2026-09-04T06:38:34Z</time>
</trkpt>
<trkpt lat="45.355390000" lon="-73.789300000">
<ele>0</ele>
<time>2026-09-04T06:38:35Z</time>
</trkpt>
<trkpt lat="45.355560000" lon="-73.788820000">
<ele>0</ele>
<time>2026-09-04T06:38:36Z</time>
</trkpt>
<trkpt lat="45.356030000" lon="-73.787730000">
<ele>0</ele>
<time>2026-09-04T06:38:37Z</time>
</trkpt>
<trkpt lat="45.356030000" lon="-73.787730000">
<ele>0</ele>
<time>2026-09-04T06:38:38Z</time>
</trkpt>
<trkpt lat="45.356860000" lon="-73.785790000">
<ele>0</ele>
<time>2026-09-04T06:38:39Z</time>
</trkpt>
<trkpt lat="45.356860000" lon="-73.785790000">
<ele>0</ele>
<time>2026-09-04T06:38:40Z</time>
</trkpt>
<trkpt lat="45.356890000" lon="-73.785740000">
<ele>0</ele>
<time>2026-09-04T06:38:41Z</time>
</trkpt>
<trkpt lat="45.356950000" lon="-73.785710000">
<ele>0</ele>
<time>2026-09-04T06:38:42Z</time>
</trkpt>
<trkpt lat="45.357320000" lon="-73.785530000">
<ele>0</ele>
<time>2026-09-04T06:38:43Z</time>
</trkpt>
<trkpt lat="45.357490000" lon="-73.785400000">
<ele>0</ele>
<time>2026-09-04T06:38:44Z</time>
</trkpt>
<trkpt lat="45.357720000" lon="-73.785140000">
<ele>0</ele>
<time>2026-09-04T06:38:45Z</time>
</trkpt>
<trkpt lat="45.357840000" lon="-73.785050000">
<ele>0</ele>
<time>2026-09-04T06:38:46Z</time>
</trkpt>
<trkpt lat="45.357970000" lon="-73.785000000">
<ele>0</ele>
<time>2026-09-04T06:38:47Z</time>
</trkpt>
<trkpt lat="45.358540000" lon="-73.784860000">
<ele>0</ele>
<time>2026-09-04T06:38:48Z</time>
</trkpt>
<trkpt lat="45.359000000" lon="-73.784740000">
<ele>0</ele>
<time>2026-09-04T06:38:49Z</time>
</trkpt>
<trkpt lat="45.359300000" lon="-73.784740000">
<ele>0</ele>
<time>2026-09-04T06:38:50Z</time>
</trkpt>
<trkpt lat="45.359520000" lon="-73.784780000">
<ele>0</ele>
<time>2026-09-04T06:38:51Z</time>
</trkpt>
<trkpt lat="45.359640000" lon="-73.784840000">
<ele>0</ele>
<time>2026-09-04T06:38:52Z</time>
</trkpt>
<trkpt lat="45.359740000" lon="-73.784930000">
<ele>0</ele>
<time>2026-09-04T06:38:53Z</time>
</trkpt>
<trkpt lat="45.359820000" lon="-73.785060000">
<ele>0</ele>
<time>2026-09-04T06:38:54Z</time>
</trkpt>
<trkpt lat="45.360170000" lon="-73.786000000">
<ele>0</ele>
<time>2026-09-04T06:38:55Z</time>
</trkpt>
<trkpt lat="45.360700000" lon="-73.787210000">
<ele>0</ele>
<time>2026-09-04T06:38:56Z</time>
</trkpt>
<trkpt lat="45.360700000" lon="-73.787210000">
<ele>0</ele>
<time>2026-09-04T06:38:57Z</time>
</trkpt>
<trkpt lat="45.361490000" lon="-73.789190000">
<ele>0</ele>
<time>2026-09-04T06:38:58Z</time>
</trkpt>
<trkpt lat="45.361550000" lon="-73.789300000">
<ele>0</ele>
<time>2026-09-04T06:38:59Z</time>
</trkpt>
<trkpt lat="45.361590000" lon="-73.789310000">
<ele>0</ele>
<time>2026-09-04T06:39:00Z</time>
</trkpt>
<trkpt lat="45.361670000" lon="-73.789250000">
<ele>0</ele>
<time>2026-09-04T06:39:01Z</time>
</trkpt>
<trkpt lat="45.361770000" lon="-73.789100000">
<ele>0</ele>
<time>2026-09-04T06:39:02Z</time>
</trkpt>
<trkpt lat="45.361890000" lon="-73.788830000">
<ele>0</ele>
<time>2026-09-04T06:39:03Z</time>
</trkpt>
<trkpt lat="45.361940000" lon="-73.788660000">
<ele>0</ele>
<time>2026-09-04T06:39:04Z</time>
</trkpt>
<trkpt lat="45.361960000" lon="-73.788430000">
<ele>0</ele>
<time>2026-09-04T06:39:05Z</time>
</trkpt>
<trkpt lat="45.361960000" lon="-73.788430000">
<ele>0</ele>
<time>2026-09-04T06:39:06Z</time>
</trkpt>
<trkpt lat="45.361990000" lon="-73.788050000">
<ele>0</ele>
<time>2026-09-04T06:39:07Z</time>
</trkpt>
<trkpt lat="45.362260000" lon="-73.787620000">
<ele>0</ele>
<time>2026-09-04T06:39:08Z</time>
</trkpt>
<trkpt lat="45.362520000" lon="-73.787240000">
<ele>0</ele>
<time>2026-09-04T06:39:09Z</time>
</trkpt>
<trkpt lat="45.363280000" lon="-73.786180000">
<ele>0</ele>
<time>2026-09-04T06:39:10Z</time>
</trkpt>
<trkpt lat="45.363540000" lon="-73.785720000">
<ele>0</ele>
<time>2026-09-04T06:39:11Z</time>
</trkpt>
<trkpt lat="45.364250000" lon="-73.784840000">
<ele>0</ele>
<time>2026-09-04T06:39:12Z</time>
</trkpt>
<trkpt lat="45.364580000" lon="-73.784470000">
<ele>0</ele>
<time>2026-09-04T06:39:13Z</time>
</trkpt>
<trkpt lat="45.364950000" lon="-73.783940000">
<ele>0</ele>
<time>2026-09-04T06:39:14Z</time>
</trkpt>
<trkpt lat="45.365260000" lon="-73.783450000">
<ele>0</ele>
<time>2026-09-04T06:39:15Z</time>
</trkpt>
<trkpt lat="45.365800000" lon="-73.782610000">
<ele>0</ele>
<time>2026-09-04T06:39:16Z</time>
</trkpt>
<trkpt lat="45.365960000" lon="-73.782440000">
<ele>0</ele>
<time>2026-09-04T06:39:17Z</time>
</trkpt>
<trkpt lat="45.366780000" lon="-73.781710000">
<ele>0</ele>
<time>2026-09-04T06:39:18Z</time>
</trkpt>
<trkpt lat="45.367090000" lon="-73.781470000">
<ele>0</ele>
<time>2026-09-04T06:39:19Z</time>
</trkpt>
<trkpt lat="45.367670000" lon="-73.781220000">
<ele>0</ele>
<time>2026-09-04T06:39:20Z</time>
</trkpt>
<trkpt lat="45.367850000" lon="-73.781170000">
<ele>0</ele>
<time>2026-09-04T06:39:21Z</time>
</trkpt>
<trkpt lat="45.368260000" lon="-73.781120000">
<ele>0</ele>
<time>2026-09-04T06:39:22Z</time>
</trkpt>
<trkpt lat="45.368390000" lon="-73.781080000">
<ele>0</ele>
<time>2026-09-04T06:39:23Z</time>
</trkpt>
<trkpt lat="45.368460000" lon="-73.781040000">
<ele>0</ele>
<time>2026-09-04T06:39:24Z</time>
</trkpt>
<trkpt lat="45.368760000" lon="-73.780770000">
<ele>0</ele>
<time>2026-09-04T06:39:25Z</time>
</trkpt>
<trkpt lat="45.369130000" lon="-73.780440000">
<ele>0</ele>
<time>2026-09-04T06:39:26Z</time>
</trkpt>
<trkpt lat="45.369260000" lon="-73.780290000">
<ele>0</ele>
<time>2026-09-04T06:39:27Z</time>
</trkpt>
<trkpt lat="45.369350000" lon="-73.780160000">
<ele>0</ele>
<time>2026-09-04T06:39:28Z</time>
</trkpt>
<trkpt lat="45.369490000" lon="-73.779840000">
<ele>0</ele>
<time>2026-09-04T06:39:29Z</time>
</trkpt>
<trkpt lat="45.369960000" lon="-73.778620000">
<ele>0</ele>
<time>2026-09-04T06:39:30Z</time>
</trkpt>
<trkpt lat="45.370080000" lon="-73.778230000">
<ele>0</ele>
<time>2026-09-04T06:39:31Z</time>
</trkpt>
<trkpt lat="45.370150000" lon="-73.777810000">
<ele>0</ele>
<time>2026-09-04T06:39:32Z</time>
</trkpt>
<trkpt lat="45.370160000" lon="-73.777500000">
<ele>0</ele>
<time>2026-09-04T06:39:33Z</time>
</trkpt>
<trkpt lat="45.370140000" lon="-73.776720000">
<ele>0</ele>
<time>2026-09-04T06:39:34Z</time>
</trkpt>
<trkpt lat="45.370180000" lon="-73.776430000">
<ele>0</ele>
<time>2026-09-04T06:39:35Z</time>
</trkpt>
<trkpt lat="45.370230000" lon="-73.776310000">
<ele>0</ele>
<time>2026-09-04T06:39:36Z</time>
</trkpt>
<trkpt lat="45.370320000" lon="-73.776200000">
<ele>0</ele>
<time>2026-09-04T06:39:37Z</time>
</trkpt>
<trkpt lat="45.370980000" lon="-73.775520000">
<ele>0</ele>
<time>2026-09-04T06:39:38Z</time>
</trkpt>
<trkpt lat="45.371080000" lon="-73.775470000">
<ele>0</ele>
<time>2026-09-04T06:39:39Z</time>
</trkpt>
<trkpt lat="45.371260000" lon="-73.775440000">
<ele>0</ele>
<time>2026-09-04T06:39:40Z</time>
</trkpt>
<trkpt lat="45.371350000" lon="-73.775440000">
<ele>0</ele>
<time>2026-09-04T06:39:41Z</time>
</trkpt>
<trkpt lat="45.371360000" lon="-73.775440000">
<ele>0</ele>
<time>2026-09-04T06:39:42Z</time>
</trkpt>
<trkpt lat="45.371710000" lon="-73.775460000">
<ele>0</ele>
<time>2026-09-04T06:39:43Z</time>
</trkpt>
<trkpt lat="45.371880000" lon="-73.775470000">
<ele>0</ele>
<time>2026-09-04T06:39:44Z</time>
</trkpt>
<trkpt lat="45.372010000" lon="-73.775970000">
<ele>0</ele>
<time>2026-09-04T06:39:45Z</time>
</trkpt>
<trkpt lat="45.372080000" lon="-73.776110000">
<ele>0</ele>
<time>2026-09-04T06:39:46Z</time>
</trkpt>
<trkpt lat="45.372130000" lon="-73.776180000">
<ele>0</ele>
<time>2026-09-04T06:39:47Z</time>
</trkpt>
<trkpt lat="45.372230000" lon="-73.776280000">
<ele>0</ele>
<time>2026-09-04T06:39:48Z</time>
</trkpt>
<trkpt lat="45.372330000" lon="-73.776350000">
<ele>0</ele>
<time>2026-09-04T06:39:49Z</time>
</trkpt>
<trkpt lat="45.372480000" lon="-73.776380000">
<ele>0</ele>
<time>2026-09-04T06:39:50Z</time>
</trkpt>
<trkpt lat="45.372480000" lon="-73.776380000">
<ele>0</ele>
<time>2026-09-04T06:39:51Z</time>
</trkpt>
<trkpt lat="45.373320000" lon="-73.776310000">
<ele>0</ele>
<time>2026-09-04T06:39:52Z</time>
</trkpt>
<trkpt lat="45.373470000" lon="-73.776290000">
<ele>0</ele>
<time>2026-09-04T06:39:53Z</time>
</trkpt>
<trkpt lat="45.373640000" lon="-73.776240000">
<ele>0</ele>
<time>2026-09-04T06:39:54Z</time>
</trkpt>
<trkpt lat="45.373820000" lon="-73.776160000">
<ele>0</ele>
<time>2026-09-04T06:39:55Z</time>
</trkpt>
<trkpt lat="45.374500000" lon="-73.775770000">
<ele>0</ele>
<time>2026-09-04T06:39:56Z</time>
</trkpt>
<trkpt lat="45.375350000" lon="-73.775560000">
<ele>0</ele>
<time>2026-09-04T06:39:57Z</time>
</trkpt>
<trkpt lat="45.375630000" lon="-73.775450000">
<ele>0</ele>
<time>2026-09-04T06:39:58Z</time>
</trkpt>
<trkpt lat="45.375960000" lon="-73.775240000">
<ele>0</ele>
<time>2026-09-04T06:39:59Z</time>
</trkpt>
<trkpt lat="45.376340000" lon="-73.775000000">
<ele>0</ele>
<time>2026-09-04T06:40:00Z</time>
</trkpt>
<trkpt lat="45.376450000" lon="-73.774920000">
<ele>0</ele>
<time>2026-09-04T06:40:01Z</time>
</trkpt>
<trkpt lat="45.376700000" lon="-73.774650000">
<ele>0</ele>
<time>2026-09-04T06:40:02Z</time>
</trkpt>
<trkpt lat="45.377800000" lon="-73.773240000">
<ele>0</ele>
<time>2026-09-04T06:40:03Z</time>
</trkpt>
<trkpt lat="45.378220000" lon="-73.772630000">
<ele>0</ele>
<time>2026-09-04T06:40:04Z</time>
</trkpt>
<trkpt lat="45.378300000" lon="-73.772500000">
<ele>0</ele>
<time>2026-09-04T06:40:05Z</time>
</trkpt>
<trkpt lat="45.378640000" lon="-73.771840000">
<ele>0</ele>
<time>2026-09-04T06:40:06Z</time>
</trkpt>
<trkpt lat="45.378890000" lon="-73.771210000">
<ele>0</ele>
<time>2026-09-04T06:40:07Z</time>
</trkpt>
<trkpt lat="45.378980000" lon="-73.770990000">
<ele>0</ele>
<time>2026-09-04T06:40:08Z</time>
</trkpt>
<trkpt lat="45.379270000" lon="-73.770340000">
<ele>0</ele>
<time>2026-09-04T06:40:09Z</time>
</trkpt>
<trkpt lat="45.379550000" lon="-73.769740000">
<ele>0</ele>
<time>2026-09-04T06:40:10Z</time>
</trkpt>
<trkpt lat="45.379600000" lon="-73.769510000">
<ele>0</ele>
<time>2026-09-04T06:40:11Z</time>
</trkpt>
<trkpt lat="45.379600000" lon="-73.768600000">
<ele>0</ele>
<time>2026-09-04T06:40:12Z</time>
</trkpt>
<trkpt lat="45.379630000" lon="-73.768420000">
<ele>0</ele>
<time>2026-09-04T06:40:13Z</time>
</trkpt>
<trkpt lat="45.379670000" lon="-73.768270000">
<ele>0</ele>
<time>2026-09-04T06:40:14Z</time>
</trkpt>
<trkpt lat="45.379750000" lon="-73.768130000">
<ele>0</ele>
<time>2026-09-04T06:40:15Z</time>
</trkpt>
<trkpt lat="45.379870000" lon="-73.767980000">
<ele>0</ele>
<time>2026-09-04T06:40:16Z</time>
</trkpt>
<trkpt lat="45.380570000" lon="-73.767290000">
<ele>0</ele>
<time>2026-09-04T06:40:17Z</time>
</trkpt>
<trkpt lat="45.380740000" lon="-73.767160000">
<ele>0</ele>
<time>2026-09-04T06:40:18Z</time>
</trkpt>
<trkpt lat="45.381190000" lon="-73.767020000">
<ele>0</ele>
<time>2026-09-04T06:40:19Z</time>
</trkpt>
<trkpt lat="45.381790000" lon="-73.766900000">
<ele>0</ele>
<time>2026-09-04T06:40:20Z</time>
</trkpt>
<trkpt lat="45.381790000" lon="-73.766900000">
<ele>0</ele>
<time>2026-09-04T06:40:21Z</time>
</trkpt>
<trkpt lat="45.382290000" lon="-73.766790000">
<ele>0</ele>
<time>2026-09-04T06:40:22Z</time>
</trkpt>
<trkpt lat="45.382930000" lon="-73.766610000">
<ele>0</ele>
<time>2026-09-04T06:40:23Z</time>
</trkpt>
<trkpt lat="45.382980000" lon="-73.766640000">
<ele>0</ele>
<time>2026-09-04T06:40:24Z</time>
</trkpt>
<trkpt lat="45.383040000" lon="-73.766730000">
<ele>0</ele>
<time>2026-09-04T06:40:25Z</time>
</trkpt>
<trkpt lat="45.383040000" lon="-73.766730000">
<ele>0</ele>
<time>2026-09-04T06:40:26Z</time>
</trkpt>
<trkpt lat="45.383290000" lon="-73.767070000">
<ele>0</ele>
<time>2026-09-04T06:40:27Z</time>
</trkpt>
<trkpt lat="45.383290000" lon="-73.767070000">
<ele>0</ele>
<time>2026-09-04T06:40:28Z</time>
</trkpt>
<trkpt lat="45.383310000" lon="-73.767100000">
<ele>0</ele>
<time>2026-09-04T06:40:29Z</time>
</trkpt>
<trkpt lat="45.383340000" lon="-73.767060000">
<ele>0</ele>
<time>2026-09-04T06:40:30Z</time>
</trkpt>
<trkpt lat="45.383870000" lon="-73.766400000">
<ele>0</ele>
<time>2026-09-04T06:40:31Z</time>
</trkpt>
<trkpt lat="45.384030000" lon="-73.766080000">
<ele>0</ele>
<time>2026-09-04T06:40:32Z</time>
</trkpt>
<trkpt lat="45.384140000" lon="-73.765780000">
<ele>0</ele>
<time>2026-09-04T06:40:33Z</time>
</trkpt>
<trkpt lat="45.384380000" lon="-73.764290000">
<ele>0</ele>
<time>2026-09-04T06:40:34Z</time>
</trkpt>
<trkpt lat="45.384380000" lon="-73.764290000">
<ele>0</ele>
<time>2026-09-04T06:40:35Z</time>
</trkpt>
<trkpt lat="45.384470000" lon="-73.763920000">
<ele>0</ele>
<time>2026-09-04T06:40:36Z</time>
</trkpt>
<trkpt lat="45.385200000" lon="-73.761370000">
<ele>0</ele>
<time>2026-09-04T06:40:37Z</time>
</trkpt>
<trkpt lat="45.385250000" lon="-73.760980000">
<ele>0</ele>
<time>2026-09-04T06:40:38Z</time>
</trkpt>
<trkpt lat="45.385220000" lon="-73.760560000">
<ele>0</ele>
<time>2026-09-04T06:40:39Z</time>
</trkpt>
<trkpt lat="45.385180000" lon="-73.760360000">
<ele>0</ele>
<time>2026-09-04T06:40:40Z</time>
</trkpt>
<trkpt lat="45.385120000" lon="-73.760170000">
<ele>0</ele>
<time>2026-09-04T06:40:41Z</time>
</trkpt>
<trkpt lat="45.384960000" lon="-73.759850000">
<ele>0</ele>
<time>2026-09-04T06:40:42Z</time>
</trkpt>
<trkpt lat="45.384810000" lon="-73.759620000">
<ele>0</ele>
<time>2026-09-04T06:40:43Z</time>
</trkpt>
<trkpt lat="45.384610000" lon="-73.759400000">
<ele>0</ele>
<time>2026-09-04T06:40:44Z</time>
</trkpt>
<trkpt lat="45.384510000" lon="-73.759310000">
<ele>0</ele>
<time>2026-09-04T06:40:45Z</time>
</trkpt>
<trkpt lat="45.384190000" lon="-73.759120000">
<ele>0</ele>
<time>2026-09-04T06:40:46Z</time>
</trkpt>
<trkpt lat="45.383870000" lon="-73.758960000">
<ele>0</ele>
<time>2026-09-04T06:40:47Z</time>
</trkpt>
<trkpt lat="45.383400000" lon="-73.758760000">
<ele>0</ele>
<time>2026-09-04T06:40:48Z</time>
</trkpt>
<trkpt lat="45.383400000" lon="-73.758760000">
<ele>0</ele>
<time>2026-09-04T06:40:49Z</time>
</trkpt>
<trkpt lat="45.383030000" lon="-73.758560000">
<ele>0</ele>
<time>2026-09-04T06:40:50Z</time>
</trkpt>
<trkpt lat="45.382840000" lon="-73.758440000">
<ele>0</ele>
<time>2026-09-04T06:40:51Z</time>
</trkpt>
<trkpt lat="45.382340000" lon="-73.757970000">
<ele>0</ele>
<time>2026-09-04T06:40:52Z</time>
</trkpt>
<trkpt lat="45.382050000" lon="-73.757650000">
<ele>0</ele>
<time>2026-09-04T06:40:53Z</time>
</trkpt>
<trkpt lat="45.381830000" lon="-73.757380000">
<ele>0</ele>
<time>2026-09-04T06:40:54Z</time>
</trkpt>
<trkpt lat="45.381170000" lon="-73.756320000">
<ele>0</ele>
<time>2026-09-04T06:40:55Z</time>
</trkpt>
<trkpt lat="45.381050000" lon="-73.756100000">
<ele>0</ele>
<time>2026-09-04T06:40:56Z</time>
</trkpt>
<trkpt lat="45.380710000" lon="-73.755340000">
<ele>0</ele>
<time>2026-09-04T06:40:57Z</time>
</trkpt>
<trkpt lat="45.380710000" lon="-73.755340000">
<ele>0</ele>
<time>2026-09-04T06:40:58Z</time>
</trkpt>
<trkpt lat="45.380260000" lon="-73.754070000">
<ele>0</ele>
<time>2026-09-04T06:40:59Z</time>
</trkpt>
<trkpt lat="45.380150000" lon="-73.753810000">
<ele>0</ele>
<time>2026-09-04T06:41:00Z</time>
</trkpt>
<trkpt lat="45.380040000" lon="-73.753610000">
<ele>0</ele>
<time>2026-09-04T06:41:01Z</time>
</trkpt>
<trkpt lat="45.379980000" lon="-73.753740000">
<ele>0</ele>
<time>2026-09-04T06:41:02Z</time>
</trkpt>
<trkpt lat="45.379980000" lon="-73.753740000">
<ele>0</ele>
<time>2026-09-04T06:41:03Z</time>
</trkpt>
<trkpt lat="45.379150000" lon="-73.755740000">
<ele>0</ele>
<time>2026-09-04T06:41:04Z</time>
</trkpt>
<trkpt lat="45.379120000" lon="-73.755910000">
<ele>0</ele>
<time>2026-09-04T06:41:05Z</time>
</trkpt>
<trkpt lat="45.379120000" lon="-73.756090000">
<ele>0</ele>
<time>2026-09-04T06:41:06Z</time>
</trkpt>
<trkpt lat="45.379150000" lon="-73.756260000">
<ele>0</ele>
<time>2026-09-04T06:41:07Z</time>
</trkpt>
<trkpt lat="45.379210000" lon="-73.756390000">
<ele>0</ele>
<time>2026-09-04T06:41:08Z</time>
</trkpt>
<trkpt lat="45.379280000" lon="-73.756500000">
<ele>0</ele>
<time>2026-09-04T06:41:09Z</time>
</trkpt>
<trkpt lat="45.379370000" lon="-73.756590000">
<ele>0</ele>
<time>2026-09-04T06:41:10Z</time>
</trkpt>
<trkpt lat="45.379400000" lon="-73.756610000">
<ele>0</ele>
<time>2026-09-04T06:41:11Z</time>
</trkpt>
<trkpt lat="45.379400000" lon="-73.756610000">
<ele>0</ele>
<time>2026-09-04T06:41:12Z</time>
</trkpt>
<trkpt lat="45.379570000" lon="-73.756650000">
<ele>0</ele>
<time>2026-09-04T06:41:13Z</time>
</trkpt>
<trkpt lat="45.379660000" lon="-73.756630000">
<ele>0</ele>
<time>2026-09-04T06:41:14Z</time>
</trkpt>
<trkpt lat="45.379760000" lon="-73.756590000">
<ele>0</ele>
<time>2026-09-04T06:41:15Z</time>
</trkpt>
<trkpt lat="45.379840000" lon="-73.756520000">
<ele>0</ele>
<time>2026-09-04T06:41:16Z</time>
</trkpt>
<trkpt lat="45.379940000" lon="-73.756350000">
<ele>0</ele>
<time>2026-09-04T06:41:17Z</time>
</trkpt>
<trkpt lat="45.380070000" lon="-73.756040000">
<ele>0</ele>
<time>2026-09-04T06:41:18Z</time>
</trkpt>
<trkpt lat="45.380200000" lon="-73.755350000">
<ele>0</ele>
<time>2026-09-04T06:41:19Z</time>
</trkpt>
<trkpt lat="45.380200000" lon="-73.755350000">
<ele>0</ele>
<time>2026-09-04T06:41:20Z</time>
</trkpt>
<trkpt lat="45.381240000" lon="-73.750040000">
<ele>0</ele>
<time>2026-09-04T06:41:21Z</time>
</trkpt>
<trkpt lat="45.381330000" lon="-73.749510000">
<ele>0</ele>
<time>2026-09-04T06:41:22Z</time>
</trkpt>
<trkpt lat="45.381330000" lon="-73.749510000">
<ele>0</ele>
<time>2026-09-04T06:41:23Z</time>
</trkpt>
<trkpt lat="45.381850000" lon="-73.746750000">
<ele>0</ele>
<time>2026-09-04T06:41:24Z</time>
</trkpt>
<trkpt lat="45.381950000" lon="-73.746160000">
<ele>0</ele>
<time>2026-09-04T06:41:25Z</time>
</trkpt>
<trkpt lat="45.382000000" lon="-73.745880000">
<ele>0</ele>
<time>2026-09-04T06:41:26Z</time>
</trkpt>
<trkpt lat="45.382070000" lon="-73.745680000">
<ele>0</ele>
<time>2026-09-04T06:41:27Z</time>
</trkpt>
<trkpt lat="45.382150000" lon="-73.745260000">
<ele>0</ele>
<time>2026-09-04T06:41:28Z</time>
</trkpt>
<trkpt lat="45.382150000" lon="-73.745260000">
<ele>0</ele>
<time>2026-09-04T06:41:29Z</time>
</trkpt>
<trkpt lat="45.382860000" lon="-73.741190000">
<ele>0</ele>
<time>2026-09-04T06:41:30Z</time>
</trkpt>
<trkpt lat="45.383690000" lon="-73.736850000">
<ele>0</ele>
<time>2026-09-04T06:41:31Z</time>
</trkpt>
<trkpt lat="45.383860000" lon="-73.736140000">
<ele>0</ele>
<time>2026-09-04T06:41:32Z</time>
</trkpt>
<trkpt lat="45.384060000" lon="-73.735590000">
<ele>0</ele>
<time>2026-09-04T06:41:33Z</time>
</trkpt>
<trkpt lat="45.384510000" lon="-73.734760000">
<ele>0</ele>
<time>2026-09-04T06:41:34Z</time>
</trkpt>
<trkpt lat="45.384700000" lon="-73.734370000">
<ele>0</ele>
<time>2026-09-04T06:41:35Z</time>
</trkpt>
<trkpt lat="45.384770000" lon="-73.734190000">
<ele>0</ele>
<time>2026-09-04T06:41:36Z</time>
</trkpt>
<trkpt lat="45.384890000" lon="-73.733830000">
<ele>0</ele>
<time>2026-09-04T06:41:37Z</time>
</trkpt>
<trkpt lat="45.384970000" lon="-73.733470000">
<ele>0</ele>
<time>2026-09-04T06:41:38Z</time>
</trkpt>
<trkpt lat="45.385020000" lon="-73.733070000">
<ele>0</ele>
<time>2026-09-04T06:41:39Z</time>
</trkpt>
<trkpt lat="45.385020000" lon="-73.732820000">
<ele>0</ele>
<time>2026-09-04T06:41:40Z</time>
</trkpt>
<trkpt lat="45.385030000" lon="-73.731290000">
<ele>0</ele>
<time>2026-09-04T06:41:41Z</time>
</trkpt>
<trkpt lat="45.385070000" lon="-73.730880000">
<ele>0</ele>
<time>2026-09-04T06:41:42Z</time>
</trkpt>
<trkpt lat="45.385160000" lon="-73.730440000">
<ele>0</ele>
<time>2026-09-04T06:41:43Z</time>
</trkpt>
<trkpt lat="45.385480000" lon="-73.729450000">
<ele>0</ele>
<time>2026-09-04T06:41:44Z</time>
</trkpt>
<trkpt lat="45.386330000" lon="-73.727080000">
<ele>0</ele>
<time>2026-09-04T06:41:45Z</time>
</trkpt>
<trkpt lat="45.386610000" lon="-73.726430000">
<ele>0</ele>
<time>2026-09-04T06:41:46Z</time>
</trkpt>
<trkpt lat="45.386860000" lon="-73.725950000">
<ele>0</ele>
<time>2026-09-04T06:41:47Z</time>
</trkpt>
<trkpt lat="45.387060000" lon="-73.725630000">
<ele>0</ele>
<time>2026-09-04T06:41:48Z</time>
</trkpt>
<trkpt lat="45.387410000" lon="-73.725230000">
<ele>0</ele>
<time>2026-09-04T06:41:49Z</time>
</trkpt>
<trkpt lat="45.388910000" lon="-73.723640000">
<ele>0</ele>
<time>2026-09-04T06:41:50Z</time>
</trkpt>
<trkpt lat="45.390090000" lon="-73.722390000">
<ele>0</ele>
<time>2026-09-04T06:41:51Z</time>
</trkpt>
<trkpt lat="45.390320000" lon="-73.722120000">
<ele>0</ele>
<time>2026-09-04T06:41:52Z</time>
</trkpt>
<trkpt lat="45.391030000" lon="-73.721230000">
<ele>0</ele>
<time>2026-09-04T06:41:53Z</time>
</trkpt>
<trkpt lat="45.392380000" lon="-73.719510000">
<ele>0</ele>
<time>2026-09-04T06:41:54Z</time>
</trkpt>
<trkpt lat="45.394140000" lon="-73.717240000">
<ele>0</ele>
<time>2026-09-04T06:41:55Z</time>
</trkpt>
<trkpt lat="45.394140000" lon="-73.717240000">
<ele>0</ele>
<time>2026-09-04T06:41:56Z</time>
</trkpt>
<trkpt lat="45.394900000" lon="-73.716230000">
<ele>0</ele>
<time>2026-09-04T06:41:57Z</time>
</trkpt>
<trkpt lat="45.395940000" lon="-73.714770000">
<ele>0</ele>
<time>2026-09-04T06:41:58Z</time>
</trkpt>
<trkpt lat="45.397230000" lon="-73.712870000">
<ele>0</ele>
<time>2026-09-04T06:41:59Z</time>
</trkpt>
<trkpt lat="45.397540000" lon="-73.712450000">
<ele>0</ele>
<time>2026-09-04T06:42:00Z</time>
</trkpt>
<trkpt lat="45.397890000" lon="-73.712070000">
<ele>0</ele>
<time>2026-09-04T06:42:01Z</time>
</trkpt>
<trkpt lat="45.398000000" lon="-73.711940000">
<ele>0</ele>
<time>2026-09-04T06:42:02Z</time>
</trkpt>
<trkpt lat="45.398160000" lon="-73.711730000">
<ele>0</ele>
<time>2026-09-04T06:42:03Z</time>
</trkpt>
<trkpt lat="45.398260000" lon="-73.711540000">
<ele>0</ele>
<time>2026-09-04T06:42:04Z</time>
</trkpt>
<trkpt lat="45.398320000" lon="-73.711360000">
<ele>0</ele>
<time>2026-09-04T06:42:05Z</time>
</trkpt>
<trkpt lat="45.398360000" lon="-73.711170000">
<ele>0</ele>
<time>2026-09-04T06:42:06Z</time>
</trkpt>
<trkpt lat="45.398390000" lon="-73.710920000">
<ele>0</ele>
<time>2026-09-04T06:42:07Z</time>
</trkpt>
<trkpt lat="45.398380000" lon="-73.710400000">
<ele>0</ele>
<time>2026-09-04T06:42:08Z</time>
</trkpt>
<trkpt lat="45.398380000" lon="-73.710400000">
<ele>0</ele>
<time>2026-09-04T06:42:09Z</time>
</trkpt>
<trkpt lat="45.398360000" lon="-73.709530000">
<ele>0</ele>
<time>2026-09-04T06:42:10Z</time>
</trkpt>
<trkpt lat="45.398430000" lon="-73.708620000">
<ele>0</ele>
<time>2026-09-04T06:42:11Z</time>
</trkpt>
<trkpt lat="45.398480000" lon="-73.708160000">
<ele>0</ele>
<time>2026-09-04T06:42:12Z</time>
</trkpt>
<trkpt lat="45.398570000" lon="-73.707690000">
<ele>0</ele>
<time>2026-09-04T06:42:13Z</time>
</trkpt>
<trkpt lat="45.398700000" lon="-73.707150000">
<ele>0</ele>
<time>2026-09-04T06:42:14Z</time>
</trkpt>
<trkpt lat="45.399110000" lon="-73.705810000">
<ele>0</ele>
<time>2026-09-04T06:42:15Z</time>
</trkpt>
<trkpt lat="45.399510000" lon="-73.704560000">
<ele>0</ele>
<time>2026-09-04T06:42:16Z</time>
</trkpt>
<trkpt lat="45.399820000" lon="-73.703730000">
<ele>0</ele>
<time>2026-09-04T06:42:17Z</time>
</trkpt>
<trkpt lat="45.400010000" lon="-73.703230000">
<ele>0</ele>
<time>2026-09-04T06:42:18Z</time>
</trkpt>
<trkpt lat="45.400470000" lon="-73.702510000">
<ele>0</ele>
<time>2026-09-04T06:42:19Z</time>
</trkpt>
<trkpt lat="45.401200000" lon="-73.701350000">
<ele>0</ele>
<time>2026-09-04T06:42:20Z</time>
</trkpt>
<trkpt lat="45.401760000" lon="-73.700460000">
<ele>0</ele>
<time>2026-09-04T06:42:21Z</time>
</trkpt>
<trkpt lat="45.402820000" lon="-73.698740000">
<ele>0</ele>
<time>2026-09-04T06:42:22Z</time>
</trkpt>
<trkpt lat="45.403160000" lon="-73.698220000">
<ele>0</ele>
<time>2026-09-04T06:42:23Z</time>
</trkpt>
<trkpt lat="45.403630000" lon="-73.697610000">
<ele>0</ele>
<time>2026-09-04T06:42:24Z</time>
</trkpt>
<trkpt lat="45.404170000" lon="-73.696860000">
<ele>0</ele>
<time>2026-09-04T06:42:25Z</time>
</trkpt>
<trkpt lat="45.404550000" lon="-73.696320000">
<ele>0</ele>
<time>2026-09-04T06:42:26Z</time>
</trkpt>
<trkpt lat="45.404850000" lon="-73.695810000">
<ele>0</ele>
<time>2026-09-04T06:42:27Z</time>
</trkpt>
<trkpt lat="45.405000000" lon="-73.695410000">
<ele>0</ele>
<time>2026-09-04T06:42:28Z</time>
</trkpt>
<trkpt lat="45.405060000" lon="-73.695180000">
<ele>0</ele>
<time>2026-09-04T06:42:29Z</time>
</trkpt>
<trkpt lat="45.405360000" lon="-73.693440000">
<ele>0</ele>
<time>2026-09-04T06:42:30Z</time>
</trkpt>
<trkpt lat="45.405710000" lon="-73.693640000">
<ele>0</ele>
<time>2026-09-04T06:42:31Z</time>
</trkpt>
<trkpt lat="45.405710000" lon="-73.693640000">
<ele>0</ele>
<time>2026-09-04T06:42:32Z</time>
</trkpt>
<trkpt lat="45.406410000" lon="-73.694070000">
<ele>0</ele>
<time>2026-09-04T06:42:33Z</time>
</trkpt>
<trkpt lat="45.406380000" lon="-73.694570000">
<ele>0</ele>
<time>2026-09-04T06:42:34Z</time>
</trkpt>
<trkpt lat="45.406290000" lon="-73.695840000">
<ele>0</ele>
<time>2026-09-04T06:42:35Z</time>
</trkpt>
<trkpt lat="45.406230000" lon="-73.697090000">
<ele>0</ele>
<time>2026-09-04T06:42:36Z</time>
</trkpt>
<trkpt lat="45.406230000" lon="-73.697670000">
<ele>0</ele>
<time>2026-09-04T06:42:37Z</time>
</trkpt>
<trkpt lat="45.406340000" lon="-73.698110000">
<ele>0</ele>
<time>2026-09-04T06:42:38Z</time>
</trkpt>
<trkpt lat="45.406340000" lon="-73.698110000">
<ele>0</ele>
<time>2026-09-04T06:42:39Z</time>
</trkpt>
<trkpt lat="45.406480000" lon="-73.698520000">
<ele>0</ele>
<time>2026-09-04T06:42:40Z</time>
</trkpt>
<trkpt lat="45.406650000" lon="-73.698830000">
<ele>0</ele>
<time>2026-09-04T06:42:41Z</time>
</trkpt>
<trkpt lat="45.406860000" lon="-73.699060000">
<ele>0</ele>
<time>2026-09-04T06:42:42Z</time>
</trkpt>
<trkpt lat="45.407170000" lon="-73.699300000">
<ele>0</ele>
<time>2026-09-04T06:42:43Z</time>
</trkpt>
<trkpt lat="45.407480000" lon="-73.699460000">
<ele>0</ele>
<time>2026-09-04T06:42:44Z</time>
</trkpt>
<trkpt lat="45.407740000" lon="-73.699570000">
<ele>0</ele>
<time>2026-09-04T06:42:45Z</time>
</trkpt>
<trkpt lat="45.407740000" lon="-73.699570000">
<ele>0</ele>
<time>2026-09-04T06:42:46Z</time>
</trkpt>
<trkpt lat="45.407820000" lon="-73.699600000">
<ele>0</ele>
<time>2026-09-04T06:42:47Z</time>
</trkpt>
<trkpt lat="45.407820000" lon="-73.699560000">
<ele>0</ele>
<time>2026-09-04T06:42:48Z</time>
</trkpt>
<trkpt lat="45.407820000" lon="-73.699520000">
<ele>0</ele>
<time>2026-09-04T06:42:49Z</time>
</trkpt>
<trkpt lat="45.407950000" lon="-73.699120000">
<ele>0</ele>
<time>2026-09-04T06:42:50Z</time>
</trkpt>
<trkpt lat="45.407950000" lon="-73.699010000">
<ele>0</ele>
<time>2026-09-04T06:42:51Z</time>
</trkpt>
<trkpt lat="45.407820000" lon="-73.698570000">
<ele>0</ele>
<time>2026-09-04T06:42:52Z</time>
</trkpt>
<trkpt lat="45.407690000" lon="-73.698180000">
<ele>0</ele>
<time>2026-09-04T06:42:53Z</time>
</trkpt>
<trkpt lat="45.407660000" lon="-73.697980000">
<ele>0</ele>
<time>2026-09-04T06:42:54Z</time>
</trkpt>
<trkpt lat="45.407680000" lon="-73.697670000">
<ele>0</ele>
<time>2026-09-04T06:42:55Z</time>
</trkpt>
<trkpt lat="45.407700000" lon="-73.697600000">
<ele>0</ele>
<time>2026-09-04T06:42:56Z</time>
</trkpt>
<trkpt lat="45.407800000" lon="-73.697370000">
<ele>0</ele>
<time>2026-09-04T06:42:57Z</time>
</trkpt>
<trkpt lat="45.407880000" lon="-73.697210000">
<ele>0</ele>
<time>2026-09-04T06:42:58Z</time>
</trkpt>
<trkpt lat="45.407990000" lon="-73.697100000">
<ele>0</ele>
<time>2026-09-04T06:42:59Z</time>
</trkpt>
<trkpt lat="45.408310000" lon="-73.697010000">
<ele>0</ele>
<time>2026-09-04T06:43:00Z</time>
</trkpt>
<trkpt lat="45.408460000" lon="-73.696950000">
<ele>0</ele>
<time>2026-09-04T06:43:01Z</time>
</trkpt>
<trkpt lat="45.408580000" lon="-73.696780000">
<ele>0</ele>
<time>2026-09-04T06:43:02Z</time>
</trkpt>
<trkpt lat="45.408740000" lon="-73.696490000">
<ele>0</ele>
<time>2026-09-04T06:43:03Z</time>
</trkpt>
<trkpt lat="45.408830000" lon="-73.696370000">
<ele>0</ele>
<time>2026-09-04T06:43:04Z</time>
</trkpt>
<trkpt lat="45.408960000" lon="-73.696120000">
<ele>0</ele>
<time>2026-09-04T06:43:05Z</time>
</trkpt>
<trkpt lat="45.409040000" lon="-73.695920000">
<ele>0</ele>
<time>2026-09-04T06:43:06Z</time>
</trkpt>
<trkpt lat="45.409130000" lon="-73.695770000">
<ele>0</ele>
<time>2026-09-04T06:43:07Z</time>
</trkpt>
<trkpt lat="45.409500000" lon="-73.695430000">
<ele>0</ele>
<time>2026-09-04T06:43:08Z</time>
</trkpt>
<trkpt lat="45.410190000" lon="-73.695030000">
<ele>0</ele>
<time>2026-09-04T06:43:09Z</time>
</trkpt>
<trkpt lat="45.411000000" lon="-73.694290000">
<ele>0</ele>
<time>2026-09-04T06:43:10Z</time>
</trkpt>
<trkpt lat="45.411170000" lon="-73.694050000">
<ele>0</ele>
<time>2026-09-04T06:43:11Z</time>
</trkpt>
<trkpt lat="45.411270000" lon="-73.693790000">
<ele>0</ele>
<time>2026-09-04T06:43:12Z</time>
</trkpt>
<trkpt lat="45.411390000" lon="-73.693160000">
<ele>0</ele>
<time>2026-09-04T06:43:13Z</time>
</trkpt>
<trkpt lat="45.411540000" lon="-73.692600000">
<ele>0</ele>
<time>2026-09-04T06:43:14Z</time>
</trkpt>
<trkpt lat="45.411680000" lon="-73.692070000">
<ele>0</ele>
<time>2026-09-04T06:43:15Z</time>
</trkpt>
<trkpt lat="45.411720000" lon="-73.691780000">
<ele>0</ele>
<time>2026-09-04T06:43:16Z</time>
</trkpt>
<trkpt lat="45.411690000" lon="-73.691570000">
<ele>0</ele>
<time>2026-09-04T06:43:17Z</time>
</trkpt>
<trkpt lat="45.411540000" lon="-73.691200000">
<ele>0</ele>
<time>2026-09-04T06:43:18Z</time>
</trkpt>
<trkpt lat="45.411430000" lon="-73.690740000">
<ele>0</ele>
<time>2026-09-04T06:43:19Z</time>
</trkpt>
<trkpt lat="45.411420000" lon="-73.690590000">
<ele>0</ele>
<time>2026-09-04T06:43:20Z</time>
</trkpt>
<trkpt lat="45.411480000" lon="-73.690480000">
<ele>0</ele>
<time>2026-09-04T06:43:21Z</time>
</trkpt>
<trkpt lat="45.411540000" lon="-73.690450000">
<ele>0</ele>
<time>2026-09-04T06:43:22Z</time>
</trkpt>
<trkpt lat="45.411600000" lon="-73.690440000">
<ele>0</ele>
<time>2026-09-04T06:43:23Z</time>
</trkpt>
<trkpt lat="45.412010000" lon="-73.690530000">
<ele>0</ele>
<time>2026-09-04T06:43:24Z</time>
</trkpt>
<trkpt lat="45.412130000" lon="-73.690500000">
<ele>0</ele>
<time>2026-09-04T06:43:25Z</time>
</trkpt>
<trkpt lat="45.412260000" lon="-73.690340000">
<ele>0</ele>
<time>2026-09-04T06:43:26Z</time>
</trkpt>
<trkpt lat="45.412360000" lon="-73.690070000">
<ele>0</ele>
<time>2026-09-04T06:43:27Z</time>
</trkpt>
<trkpt lat="45.412490000" lon="-73.689600000">
<ele>0</ele>
<time>2026-09-04T06:43:28Z</time>
</trkpt>
<trkpt lat="45.412560000" lon="-73.688890000">
<ele>0</ele>
<time>2026-09-04T06:43:29Z</time>
</trkpt>
<trkpt lat="45.412560000" lon="-73.688890000">
<ele>0</ele>
<time>2026-09-04T06:43:30Z</time>
</trkpt>
<trkpt lat="45.412610000" lon="-73.688290000">
<ele>0</ele>
<time>2026-09-04T06:43:31Z</time>
</trkpt>
<trkpt lat="45.412660000" lon="-73.688100000">
<ele>0</ele>
<time>2026-09-04T06:43:32Z</time>
</trkpt>
<trkpt lat="45.412750000" lon="-73.687870000">
<ele>0</ele>
<time>2026-09-04T06:43:33Z</time>
</trkpt>
<trkpt lat="45.412870000" lon="-73.687660000">
<ele>0</ele>
<time>2026-09-04T06:43:34Z</time>
</trkpt>
<trkpt lat="45.413100000" lon="-73.687330000">
<ele>0</ele>
<time>2026-09-04T06:43:35Z</time>
</trkpt>
<trkpt lat="45.413230000" lon="-73.687130000">
<ele>0</ele>
<time>2026-09-04T06:43:36Z</time>
</trkpt>
<trkpt lat="45.413300000" lon="-73.686970000">
<ele>0</ele>
<time>2026-09-04T06:43:37Z</time>
</trkpt>
<trkpt lat="45.413360000" lon="-73.686830000">
<ele>0</ele>
<time>2026-09-04T06:43:38Z</time>
</trkpt>
<trkpt lat="45.413400000" lon="-73.686630000">
<ele>0</ele>
<time>2026-09-04T06:43:39Z</time>
</trkpt>
<trkpt lat="45.413390000" lon="-73.686300000">
<ele>0</ele>
<time>2026-09-04T06:43:40Z</time>
</trkpt>
<trkpt lat="45.413380000" lon="-73.686070000">
<ele>0</ele>
<time>2026-09-04T06:43:41Z</time>
</trkpt>
<trkpt lat="45.413410000" lon="-73.685960000">
<ele>0</ele>
<time>2026-09-04T06:43:42Z</time>
</trkpt>
<trkpt lat="45.413510000" lon="-73.685880000">
<ele>0</ele>
<time>2026-09-04T06:43:43Z</time>
</trkpt>
<trkpt lat="45.413730000" lon="-73.685670000">
<ele>0</ele>
<time>2026-09-04T06:43:44Z</time>
</trkpt>
<trkpt lat="45.413900000" lon="-73.685420000">
<ele>0</ele>
<time>2026-09-04T06:43:45Z</time>
</trkpt>
<trkpt lat="45.413960000" lon="-73.685190000">
<ele>0</ele>
<time>2026-09-04T06:43:46Z</time>
</trkpt>
<trkpt lat="45.414010000" lon="-73.684980000">
<ele>0</ele>
<time>2026-09-04T06:43:47Z</time>
</trkpt>
<trkpt lat="45.414360000" lon="-73.684850000">
<ele>0</ele>
<time>2026-09-04T06:43:48Z</time>
</trkpt>
<trkpt lat="45.414620000" lon="-73.684770000">
<ele>0</ele>
<time>2026-09-04T06:43:49Z</time>
</trkpt>
<trkpt lat="45.414800000" lon="-73.684660000">
<ele>0</ele>
<time>2026-09-04T06:43:50Z</time>
</trkpt>
<trkpt lat="45.414960000" lon="-73.684540000">
<ele>0</ele>
<time>2026-09-04T06:43:51Z</time>
</trkpt>
<trkpt lat="45.415120000" lon="-73.684380000">
<ele>0</ele>
<time>2026-09-04T06:43:52Z</time>
</trkpt>
<trkpt lat="45.415450000" lon="-73.684000000">
<ele>0</ele>
<time>2026-09-04T06:43:53Z</time>
</trkpt>
<trkpt lat="45.415450000" lon="-73.684000000">
<ele>0</ele>
<time>2026-09-04T06:43:54Z</time>
</trkpt>
<trkpt lat="45.415620000" lon="-73.683770000">
<ele>0</ele>
<time>2026-09-04T06:43:55Z</time>
</trkpt>
<trkpt lat="45.415700000" lon="-73.683560000">
<ele>0</ele>
<time>2026-09-04T06:43:56Z</time>
</trkpt>
<trkpt lat="45.415810000" lon="-73.683090000">
<ele>0</ele>
<time>2026-09-04T06:43:57Z</time>
</trkpt>
<trkpt lat="45.415950000" lon="-73.681970000">
<ele>0</ele>
<time>2026-09-04T06:43:58Z</time>
</trkpt>
<trkpt lat="45.415930000" lon="-73.681320000">
<ele>0</ele>
<time>2026-09-04T06:43:59Z</time>
</trkpt>
<trkpt lat="45.415890000" lon="-73.681020000">
<ele>0</ele>
<time>2026-09-04T06:44:00Z</time>
</trkpt>
<trkpt lat="45.415800000" lon="-73.680630000">
<ele>0</ele>
<time>2026-09-04T06:44:01Z</time>
</trkpt>
<trkpt lat="45.415640000" lon="-73.679160000">
<ele>0</ele>
<time>2026-09-04T06:44:02Z</time>
</trkpt>
<trkpt lat="45.415640000" lon="-73.679160000">
<ele>0</ele>
<time>2026-09-04T06:44:03Z</time>
</trkpt>
<trkpt lat="45.415620000" lon="-73.678950000">
<ele>0</ele>
<time>2026-09-04T06:44:04Z</time>
</trkpt>
<trkpt lat="45.415560000" lon="-73.678710000">
<ele>0</ele>
<time>2026-09-04T06:44:05Z</time>
</trkpt>
<trkpt lat="45.415420000" lon="-73.678090000">
<ele>0</ele>
<time>2026-09-04T06:44:06Z</time>
</trkpt>
<trkpt lat="45.415260000" lon="-73.677040000">
<ele>0</ele>
<time>2026-09-04T06:44:07Z</time>
</trkpt>
<trkpt lat="45.415230000" lon="-73.676910000">
<ele>0</ele>
<time>2026-09-04T06:44:08Z</time>
</trkpt>
<trkpt lat="45.415060000" lon="-73.676360000">
<ele>0</ele>
<time>2026-09-04T06:44:09Z</time>
</trkpt>
<trkpt lat="45.414970000" lon="-73.675950000">
<ele>0</ele>
<time>2026-09-04T06:44:10Z</time>
</trkpt>
<trkpt lat="45.414920000" lon="-73.675620000">
<ele>0</ele>
<time>2026-09-04T06:44:11Z</time>
</trkpt>
<trkpt lat="45.414860000" lon="-73.674860000">
<ele>0</ele>
<time>2026-09-04T06:44:12Z</time>
</trkpt>
<trkpt lat="45.414800000" lon="-73.674220000">
<ele>0</ele>
<time>2026-09-04T06:44:13Z</time>
</trkpt>
<trkpt lat="45.414610000" lon="-73.672930000">
<ele>0</ele>
<time>2026-09-04T06:44:14Z</time>
</trkpt>
<trkpt lat="45.414510000" lon="-73.672250000">
<ele>0</ele>
<time>2026-09-04T06:44:15Z</time>
</trkpt>
<trkpt lat="45.414480000" lon="-73.672000000">
<ele>0</ele>
<time>2026-09-04T06:44:16Z</time>
</trkpt>
<trkpt lat="45.414420000" lon="-73.671760000">
<ele>0</ele>
<time>2026-09-04T06:44:17Z</time>
</trkpt>
<trkpt lat="45.414360000" lon="-73.671610000">
<ele>0</ele>
<time>2026-09-04T06:44:18Z</time>
</trkpt>
<trkpt lat="45.414140000" lon="-73.671260000">
<ele>0</ele>
<time>2026-09-04T06:44:19Z</time>
</trkpt>
<trkpt lat="45.413370000" lon="-73.670300000">
<ele>0</ele>
<time>2026-09-04T06:44:20Z</time>
</trkpt>
<trkpt lat="45.413370000" lon="-73.670300000">
<ele>0</ele>
<time>2026-09-04T06:44:21Z</time>
</trkpt>
<trkpt lat="45.413310000" lon="-73.670210000">
<ele>0</ele>
<time>2026-09-04T06:44:22Z</time>
</trkpt>
<trkpt lat="45.413250000" lon="-73.670000000">
<ele>0</ele>
<time>2026-09-04T06:44:23Z</time>
</trkpt>
<trkpt lat="45.412980000" lon="-73.668720000">
<ele>0</ele>
<time>2026-09-04T06:44:24Z</time>
</trkpt>
<trkpt lat="45.412780000" lon="-73.667940000">
<ele>0</ele>
<time>2026-09-04T06:44:25Z</time>
</trkpt>
<trkpt lat="45.412720000" lon="-73.667820000">
<ele>0</ele>
<time>2026-09-04T06:44:26Z</time>
</trkpt>
<trkpt lat="45.412400000" lon="-73.667500000">
<ele>0</ele>
<time>2026-09-04T06:44:27Z</time>
</trkpt>
<trkpt lat="45.412400000" lon="-73.667500000">
<ele>0</ele>
<time>2026-09-04T06:44:28Z</time>
</trkpt>
<trkpt lat="45.412260000" lon="-73.667370000">
<ele>0</ele>
<time>2026-09-04T06:44:29Z</time>
</trkpt>
<trkpt lat="45.411940000" lon="-73.666890000">
<ele>0</ele>
<time>2026-09-04T06:44:30Z</time>
</trkpt>
<trkpt lat="45.411290000" lon="-73.665880000">
<ele>0</ele>
<time>2026-09-04T06:44:31Z</time>
</trkpt>
<trkpt lat="45.410990000" lon="-73.665520000">
<ele>0</ele>
<time>2026-09-04T06:44:32Z</time>
</trkpt>
<trkpt lat="45.410990000" lon="-73.665520000">
<ele>0</ele>
<time>2026-09-04T06:44:33Z</time>
</trkpt>
<trkpt lat="45.410340000" lon="-73.665350000">
<ele>0</ele>
<time>2026-09-04T06:44:34Z</time>
</trkpt>
<trkpt lat="45.410040000" lon="-73.665200000">
<ele>0</ele>
<time>2026-09-04T06:44:35Z</time>
</trkpt>
<trkpt lat="45.409990000" lon="-73.665200000">
<ele>0</ele>
<time>2026-09-04T06:44:36Z</time>
</trkpt>
<trkpt lat="45.409870000" lon="-73.665260000">
<ele>0</ele>
<time>2026-09-04T06:44:37Z</time>
</trkpt>
<trkpt lat="45.409810000" lon="-73.665080000">
<ele>0</ele>
<time>2026-09-04T06:44:38Z</time>
</trkpt>
<trkpt lat="45.409760000" lon="-73.664960000">
<ele>0</ele>
<time>2026-09-04T06:44:39Z</time>
</trkpt>
<trkpt lat="45.409760000" lon="-73.664960000">
<ele>0</ele>
<time>2026-09-04T06:44:40Z</time>
</trkpt>
<trkpt lat="45.408970000" lon="-73.662700000">
<ele>0</ele>
<time>2026-09-04T06:44:41Z</time>
</trkpt>
<trkpt lat="45.408950000" lon="-73.662500000">
<ele>0</ele>
<time>2026-09-04T06:44:42Z</time>
</trkpt>
<trkpt lat="45.408960000" lon="-73.662430000">
<ele>0</ele>
<time>2026-09-04T06:44:43Z</time>
</trkpt>
<trkpt lat="45.408960000" lon="-73.662430000">
<ele>0</ele>
<time>2026-09-04T06:44:44Z</time>
</trkpt>
<trkpt lat="45.409070000" lon="-73.661890000">
<ele>0</ele>
<time>2026-09-04T06:44:45Z</time>
</trkpt>
<trkpt lat="45.409080000" lon="-73.661680000">
<ele>0</ele>
<time>2026-09-04T06:44:46Z</time>
</trkpt>
<trkpt lat="45.409050000" lon="-73.661480000">
<ele>0</ele>
<time>2026-09-04T06:44:47Z</time>
</trkpt>
<trkpt lat="45.408970000" lon="-73.661220000">
<ele>0</ele>
<time>2026-09-04T06:44:48Z</time>
</trkpt>
<trkpt lat="45.408830000" lon="-73.660800000">
<ele>0</ele>
<time>2026-09-04T06:44:49Z</time>
</trkpt>
<trkpt lat="45.408810000" lon="-73.660750000">
<ele>0</ele>
<time>2026-09-04T06:44:50Z</time>
</trkpt>
<trkpt lat="45.408710000" lon="-73.660570000">
<ele>0</ele>
<time>2026-09-04T06:44:51Z</time>
</trkpt>
<trkpt lat="45.408460000" lon="-73.660230000">
<ele>0</ele>
<time>2026-09-04T06:44:52Z</time>
</trkpt>
<trkpt lat="45.408240000" lon="-73.659950000">
<ele>0</ele>
<time>2026-09-04T06:44:53Z</time>
</trkpt>
<trkpt lat="45.408120000" lon="-73.659730000">
<ele>0</ele>
<time>2026-09-04T06:44:54Z</time>
</trkpt>
<trkpt lat="45.407970000" lon="-73.659390000">
<ele>0</ele>
<time>2026-09-04T06:44:55Z</time>
</trkpt>
<trkpt lat="45.407790000" lon="-73.658940000">
<ele>0</ele>
<time>2026-09-04T06:44:56Z</time>
</trkpt>
<trkpt lat="45.407520000" lon="-73.658520000">
<ele>0</ele>
<time>2026-09-04T06:44:57Z</time>
</trkpt>
<trkpt lat="45.407290000" lon="-73.658180000">
<ele>0</ele>
<time>2026-09-04T06:44:58Z</time>
</trkpt>
<trkpt lat="45.407270000" lon="-73.658150000">
<ele>0</ele>
<time>2026-09-04T06:44:59Z</time>
</trkpt>
<trkpt lat="45.407270000" lon="-73.658150000">
<ele>0</ele>
<time>2026-09-04T06:45:00Z</time>
</trkpt>
<trkpt lat="45.407080000" lon="-73.657740000">
<ele>0</ele>
<time>2026-09-04T06:45:01Z</time>
</trkpt>
<trkpt lat="45.407010000" lon="-73.657540000">
<ele>0</ele>
<time>2026-09-04T06:45:02Z</time>
</trkpt>
<trkpt lat="45.406790000" lon="-73.656750000">
<ele>0</ele>
<time>2026-09-04T06:45:03Z</time>
</trkpt>
<trkpt lat="45.406560000" lon="-73.656100000">
<ele>0</ele>
<time>2026-09-04T06:45:04Z</time>
</trkpt>
<trkpt lat="45.406450000" lon="-73.655810000">
<ele>0</ele>
<time>2026-09-04T06:45:05Z</time>
</trkpt>
<trkpt lat="45.406210000" lon="-73.655270000">
<ele>0</ele>
<time>2026-09-04T06:45:06Z</time>
</trkpt>
<trkpt lat="45.405880000" lon="-73.654590000">
<ele>0</ele>
<time>2026-09-04T06:45:07Z</time>
</trkpt>
<trkpt lat="45.404640000" lon="-73.652090000">
<ele>0</ele>
<time>2026-09-04T06:45:08Z</time>
</trkpt>
<trkpt lat="45.404470000" lon="-73.651670000">
<ele>0</ele>
<time>2026-09-04T06:45:09Z</time>
</trkpt>
<trkpt lat="45.404380000" lon="-73.651410000">
<ele>0</ele>
<time>2026-09-04T06:45:10Z</time>
</trkpt>
<trkpt lat="45.404230000" lon="-73.650770000">
<ele>0</ele>
<time>2026-09-04T06:45:11Z</time>
</trkpt>
<trkpt lat="45.403890000" lon="-73.649220000">
<ele>0</ele>
<time>2026-09-04T06:45:12Z</time>
</trkpt>
<trkpt lat="45.403620000" lon="-73.648390000">
<ele>0</ele>
<time>2026-09-04T06:45:13Z</time>
</trkpt>
<trkpt lat="45.403580000" lon="-73.648250000">
<ele>0</ele>
<time>2026-09-04T06:45:14Z</time>
</trkpt>
<trkpt lat="45.403580000" lon="-73.648250000">
<ele>0</ele>
<time>2026-09-04T06:45:15Z</time>
</trkpt>
<trkpt lat="45.403400000" lon="-73.647440000">
<ele>0</ele>
<time>2026-09-04T06:45:16Z</time>
</trkpt>
<trkpt lat="45.403170000" lon="-73.646280000">
<ele>0</ele>
<time>2026-09-04T06:45:17Z</time>
</trkpt>
<trkpt lat="45.403010000" lon="-73.645500000">
<ele>0</ele>
<time>2026-09-04T06:45:18Z</time>
</trkpt>
<trkpt lat="45.402950000" lon="-73.645350000">
<ele>0</ele>
<time>2026-09-04T06:45:19Z</time>
</trkpt>
<trkpt lat="45.402890000" lon="-73.645310000">
<ele>0</ele>
<time>2026-09-04T06:45:20Z</time>
</trkpt>
<trkpt lat="45.402760000" lon="-73.645330000">
<ele>0</ele>
<time>2026-09-04T06:45:21Z</time>
</trkpt>
<trkpt lat="45.402250000" lon="-73.645530000">
<ele>0</ele>
<time>2026-09-04T06:45:22Z</time>
</trkpt>
<trkpt lat="45.402090000" lon="-73.644830000">
<ele>0</ele>
<time>2026-09-04T06:45:23Z</time>
</trkpt>
<trkpt lat="45.402090000" lon="-73.644830000">
<ele>0</ele>
<time>2026-09-04T06:45:24Z</time>
</trkpt>
<trkpt lat="45.401660000" lon="-73.642600000">
<ele>0</ele>
<time>2026-09-04T06:45:25Z</time>
</trkpt>
<trkpt lat="45.401120000" lon="-73.639940000">
<ele>0</ele>
<time>2026-09-04T06:45:26Z</time>
</trkpt>
<trkpt lat="45.400210000" lon="-73.635850000">
<ele>0</ele>
<time>2026-09-04T06:45:27Z</time>
</trkpt>
<trkpt lat="45.399450000" lon="-73.632350000">
<ele>0</ele>
<time>2026-09-04T06:45:28Z</time>
</trkpt>
<trkpt lat="45.399130000" lon="-73.630810000">
<ele>0</ele>
<time>2026-09-04T06:45:29Z</time>
</trkpt>
<trkpt lat="45.399120000" lon="-73.630640000">
<ele>0</ele>
<time>2026-09-04T06:45:30Z</time>
</trkpt>
<trkpt lat="45.399040000" lon="-73.630210000">
<ele>0</ele>
<time>2026-09-04T06:45:31Z</time>
</trkpt>
<trkpt lat="45.398780000" lon="-73.628700000">
<ele>0</ele>
<time>2026-09-04T06:45:32Z</time>
</trkpt>
<trkpt lat="45.398730000" lon="-73.628400000">
<ele>0</ele>
<time>2026-09-04T06:45:33Z</time>
</trkpt>
<trkpt lat="45.398020000" lon="-73.624160000">
<ele>0</ele>
<time>2026-09-04T06:45:34Z</time>
</trkpt>
<trkpt lat="45.397580000" lon="-73.621590000">
<ele>0</ele>
<time>2026-09-04T06:45:35Z</time>
</trkpt>
<trkpt lat="45.397210000" lon="-73.619520000">
<ele>0</ele>
<time>2026-09-04T06:45:36Z</time>
</trkpt>
<trkpt lat="45.396780000" lon="-73.617090000">
<ele>0</ele>
<time>2026-09-04T06:45:37Z</time>
</trkpt>
<trkpt lat="45.396550000" lon="-73.615770000">
<ele>0</ele>
<time>2026-09-04T06:45:38Z</time>
</trkpt>
<trkpt lat="45.396390000" lon="-73.614660000">
<ele>0</ele>
<time>2026-09-04T06:45:39Z</time>
</trkpt>
<trkpt lat="45.395850000" lon="-73.611600000">
<ele>0</ele>
<time>2026-09-04T06:45:40Z</time>
</trkpt>
<trkpt lat="45.395640000" lon="-73.610050000">
<ele>0</ele>
<time>2026-09-04T06:45:41Z</time>
</trkpt>
<trkpt lat="45.395530000" lon="-73.609050000">
<ele>0</ele>
<time>2026-09-04T06:45:42Z</time>
</trkpt>
<trkpt lat="45.395460000" lon="-73.607490000">
<ele>0</ele>
<time>2026-09-04T06:45:43Z</time>
</trkpt>
<trkpt lat="45.395380000" lon="-73.607210000">
<ele>0</ele>
<time>2026-09-04T06:45:44Z</time>
</trkpt>
<trkpt lat="45.395480000" lon="-73.607170000">
<ele>0</ele>
<time>2026-09-04T06:45:45Z</time>
</trkpt>
<trkpt lat="45.395780000" lon="-73.607090000">
<ele>0</ele>
<time>2026-09-04T06:45:46Z</time>
</trkpt>
<trkpt lat="45.397560000" lon="-73.606240000">
<ele>0</ele>
<time>2026-09-04T06:45:47Z</time>
</trkpt>
<trkpt lat="45.398640000" lon="-73.605760000">
<ele>0</ele>
<time>2026-09-04T06:45:48Z</time>
</trkpt>
<trkpt lat="45.398690000" lon="-73.605730000">
<ele>0</ele>
<time>2026-09-04T06:45:49Z</time>
</trkpt>
<trkpt lat="45.398690000" lon="-73.605730000">
<ele>0</ele>
<time>2026-09-04T06:45:50Z</time>
</trkpt>
<trkpt lat="45.401200000" lon="-73.604610000">
<ele>0</ele>
<time>2026-09-04T06:45:51Z</time>
</trkpt>
<trkpt lat="45.402590000" lon="-73.603950000">
<ele>0</ele>
<time>2026-09-04T06:45:52Z</time>
</trkpt>
<trkpt lat="45.404630000" lon="-73.602980000">
<ele>0</ele>
<time>2026-09-04T06:45:53Z</time>
</trkpt>
<trkpt lat="45.404880000" lon="-73.601350000">
<ele>0</ele>
<time>2026-09-04T06:45:54Z</time>
</trkpt>
<trkpt lat="45.404940000" lon="-73.600970000">
<ele>0</ele>
<time>2026-09-04T06:45:55Z</time>
</trkpt>
<trkpt lat="45.404940000" lon="-73.600970000">
<ele>0</ele>
<time>2026-09-04T06:45:56Z</time>
</trkpt>
<trkpt lat="45.406160000" lon="-73.593120000">
<ele>0</ele>
<time>2026-09-04T06:45:57Z</time>
</trkpt>
<trkpt lat="45.406210000" lon="-73.592680000">
<ele>0</ele>
<time>2026-09-04T06:45:58Z</time>
</trkpt>
<trkpt lat="45.406260000" lon="-73.591790000">
<ele>0</ele>
<time>2026-09-04T06:45:59Z</time>
</trkpt>
<trkpt lat="45.406420000" lon="-73.587370000">
<ele>0</ele>
<time>2026-09-04T06:46:00Z</time>
</trkpt>
<trkpt lat="45.405820000" lon="-73.587330000">
<ele>0</ele>
<time>2026-09-04T06:46:01Z</time>
</trkpt>
<trkpt lat="45.405820000" lon="-73.587330000">
<ele>0</ele>
<time>2026-09-04T06:46:02Z</time>
</trkpt>
<trkpt lat="45.404820000" lon="-73.587240000">
<ele>0</ele>
<time>2026-09-04T06:46:03Z</time>
</trkpt>
<trkpt lat="45.403330000" lon="-73.587140000">
<ele>0</ele>
<time>2026-09-04T06:46:04Z</time>
</trkpt>
<trkpt lat="45.402310000" lon="-73.587030000">
<ele>0</ele>
<time>2026-09-04T06:46:05Z</time>
</trkpt>
<trkpt lat="45.401220000" lon="-73.586950000">
<ele>0</ele>
<time>2026-09-04T06:46:06Z</time>
</trkpt>
<trkpt lat="45.401020000" lon="-73.586970000">
<ele>0</ele>
<time>2026-09-04T06:46:07Z</time>
</trkpt>
<trkpt lat="45.400830000" lon="-73.587060000">
<ele>0</ele>
<time>2026-09-04T06:46:08Z</time>
</trkpt>
<trkpt lat="45.400740000" lon="-73.587130000">
<ele>0</ele>
<time>2026-09-04T06:46:09Z</time>
</trkpt>
<trkpt lat="45.400790000" lon="-73.585300000">
<ele>0</ele>
<time>2026-09-04T06:46:10Z</time>
</trkpt>
<trkpt lat="45.400790000" lon="-73.585300000">
<ele>0</ele>
<time>2026-09-04T06:46:11Z</time>
</trkpt>
<trkpt lat="45.400930000" lon="-73.581670000">
<ele>0</ele>
<time>2026-09-04T06:46:12Z</time>
</trkpt>
<trkpt lat="45.401000000" lon="-73.579930000">
<ele>0</ele>
<time>2026-09-04T06:46:13Z</time>
</trkpt>
<trkpt lat="45.400970000" lon="-73.578990000">
<ele>0</ele>
<time>2026-09-04T06:46:14Z</time>
</trkpt>
<trkpt lat="45.400890000" lon="-73.578250000">
<ele>0</ele>
<time>2026-09-04T06:46:15Z</time>
</trkpt>
<trkpt lat="45.400740000" lon="-73.577460000">
<ele>0</ele>
<time>2026-09-04T06:46:16Z</time>
</trkpt>
<trkpt lat="45.400480000" lon="-73.576310000">
<ele>0</ele>
<time>2026-09-04T06:46:17Z</time>
</trkpt>
<trkpt lat="45.401210000" lon="-73.575940000">
<ele>0</ele>
<time>2026-09-04T06:46:18Z</time>
</trkpt>
<trkpt lat="45.401670000" lon="-73.575710000">
<ele>0</ele>
<time>2026-09-04T06:46:19Z</time>
</trkpt>
<trkpt lat="45.401690000" lon="-73.575690000">
<ele>0</ele>
<time>2026-09-04T06:46:20Z</time>
</trkpt>
<trkpt lat="45.401690000" lon="-73.575690000">
<ele>0</ele>
<time>2026-09-04T06:46:21Z</time>
</trkpt>
<trkpt lat="45.403760000" lon="-73.574630000">
<ele>0</ele>
<time>2026-09-04T06:46:22Z</time>
</trkpt>
<trkpt lat="45.405160000" lon="-73.573850000">
<ele>0</ele>
<time>2026-09-04T06:46:23Z</time>
</trkpt>
<trkpt lat="45.405390000" lon="-73.573590000">
<ele>0</ele>
<time>2026-09-04T06:46:24Z</time>
</trkpt>
<trkpt lat="45.405430000" lon="-73.573530000">
<ele>0</ele>
<time>2026-09-04T06:46:25Z</time>
</trkpt>
<trkpt lat="45.405600000" lon="-73.573190000">
<ele>0</ele>
<time>2026-09-04T06:46:26Z</time>
</trkpt>
<trkpt lat="45.405690000" lon="-73.572840000">
<ele>0</ele>
<time>2026-09-04T06:46:27Z</time>
</trkpt>
<trkpt lat="45.405730000" lon="-73.572540000">
<ele>0</ele>
<time>2026-09-04T06:46:28Z</time>
</trkpt>
<trkpt lat="45.405760000" lon="-73.572000000">
<ele>0</ele>
<time>2026-09-04T06:46:29Z</time>
</trkpt>
<trkpt lat="45.405860000" lon="-73.570240000">
<ele>0</ele>
<time>2026-09-04T06:46:30Z</time>
</trkpt>
<trkpt lat="45.405860000" lon="-73.570240000">
<ele>0</ele>
<time>2026-09-04T06:46:31Z</time>
</trkpt>
<trkpt lat="45.405940000" lon="-73.569010000">
<ele>0</ele>
<time>2026-09-04T06:46:32Z</time>
</trkpt>
<trkpt lat="45.405940000" lon="-73.568670000">
<ele>0</ele>
<time>2026-09-04T06:46:33Z</time>
</trkpt>
<trkpt lat="45.405900000" lon="-73.568240000">
<ele>0</ele>
<time>2026-09-04T06:46:34Z</time>
</trkpt>
<trkpt lat="45.405860000" lon="-73.568030000">
<ele>0</ele>
<time>2026-09-04T06:46:35Z</time>
</trkpt>
<trkpt lat="45.405750000" lon="-73.567640000">
<ele>0</ele>
<time>2026-09-04T06:46:36Z</time>
</trkpt>
<trkpt lat="45.405610000" lon="-73.567270000">
<ele>0</ele>
<time>2026-09-04T06:46:37Z</time>
</trkpt>
<trkpt lat="45.405380000" lon="-73.566830000">
<ele>0</ele>
<time>2026-09-04T06:46:38Z</time>
</trkpt>
<trkpt lat="45.405270000" lon="-73.566600000">
<ele>0</ele>
<time>2026-09-04T06:46:39Z</time>
</trkpt>
<trkpt lat="45.404820000" lon="-73.565770000">
<ele>0</ele>
<time>2026-09-04T06:46:40Z</time>
</trkpt>
<trkpt lat="45.404590000" lon="-73.565310000">
<ele>0</ele>
<time>2026-09-04T06:46:41Z</time>
</trkpt>
<trkpt lat="45.404360000" lon="-73.564720000">
<ele>0</ele>
<time>2026-09-04T06:46:42Z</time>
</trkpt>
<trkpt lat="45.404140000" lon="-73.564050000">
<ele>0</ele>
<time>2026-09-04T06:46:43Z</time>
</trkpt>
<trkpt lat="45.403830000" lon="-73.562900000">
<ele>0</ele>
<time>2026-09-04T06:46:44Z</time>
</trkpt>
<trkpt lat="45.403540000" lon="-73.561760000">
<ele>0</ele>
<time>2026-09-04T06:46:45Z</time>
</trkpt>
<trkpt lat="45.403280000" lon="-73.560870000">
<ele>0</ele>
<time>2026-09-04T06:46:46Z</time>
</trkpt>
<trkpt lat="45.402740000" lon="-73.558840000">
<ele>0</ele>
<time>2026-09-04T06:46:47Z</time>
</trkpt>
<trkpt lat="45.402590000" lon="-73.558130000">
<ele>0</ele>
<time>2026-09-04T06:46:48Z</time>
</trkpt>
<trkpt lat="45.402470000" lon="-73.557250000">
<ele>0</ele>
<time>2026-09-04T06:46:49Z</time>
</trkpt>
<trkpt lat="45.402340000" lon="-73.555630000">
<ele>0</ele>
<time>2026-09-04T06:46:50Z</time>
</trkpt>
<trkpt lat="45.402230000" lon="-73.555030000">
<ele>0</ele>
<time>2026-09-04T06:46:51Z</time>
</trkpt>
<trkpt lat="45.402140000" lon="-73.554710000">
<ele>0</ele>
<time>2026-09-04T06:46:52Z</time>
</trkpt>
<trkpt lat="45.401920000" lon="-73.554160000">
<ele>0</ele>
<time>2026-09-04T06:46:53Z</time>
</trkpt>
<trkpt lat="45.401580000" lon="-73.553420000">
<ele>0</ele>
<time>2026-09-04T06:46:54Z</time>
</trkpt>
<trkpt lat="45.401580000" lon="-73.553420000">
<ele>0</ele>
<time>2026-09-04T06:46:55Z</time>
</trkpt>
<trkpt lat="45.401290000" lon="-73.552660000">
<ele>0</ele>
<time>2026-09-04T06:46:56Z</time>
</trkpt>
<trkpt lat="45.401130000" lon="-73.552150000">
<ele>0</ele>
<time>2026-09-04T06:46:57Z</time>
</trkpt>
<trkpt lat="45.400950000" lon="-73.551360000">
<ele>0</ele>
<time>2026-09-04T06:46:58Z</time>
</trkpt>
<trkpt lat="45.400820000" lon="-73.550550000">
<ele>0</ele>
<time>2026-09-04T06:46:59Z</time>
</trkpt>
<trkpt lat="45.400760000" lon="-73.549870000">
<ele>0</ele>
<time>2026-09-04T06:47:00Z</time>
</trkpt>
<trkpt lat="45.400720000" lon="-73.549220000">
<ele>0</ele>
<time>2026-09-04T06:47:01Z</time>
</trkpt>
<trkpt lat="45.400720000" lon="-73.548870000">
<ele>0</ele>
<time>2026-09-04T06:47:02Z</time>
</trkpt>
<trkpt lat="45.400770000" lon="-73.548260000">
<ele>0</ele>
<time>2026-09-04T06:47:03Z</time>
</trkpt>
<trkpt lat="45.400900000" lon="-73.547330000">
<ele>0</ele>
<time>2026-09-04T06:47:04Z</time>
</trkpt>
<trkpt lat="45.401100000" lon="-73.545710000">
<ele>0</ele>
<time>2026-09-04T06:47:05Z</time>
</trkpt>
<trkpt lat="45.401240000" lon="-73.544360000">
<ele>0</ele>
<time>2026-09-04T06:47:06Z</time>
</trkpt>
<trkpt lat="45.401280000" lon="-73.543400000">
<ele>0</ele>
<time>2026-09-04T06:47:07Z</time>
</trkpt>
<trkpt lat="45.401290000" lon="-73.542800000">
<ele>0</ele>
<time>2026-09-04T06:47:08Z</time>
</trkpt>
<trkpt lat="45.401220000" lon="-73.542080000">
<ele>0</ele>
<time>2026-09-04T06:47:09Z</time>
</trkpt>
<trkpt lat="45.401160000" lon="-73.541660000">
<ele>0</ele>
<time>2026-09-04T06:47:10Z</time>
</trkpt>
<trkpt lat="45.401030000" lon="-73.540930000">
<ele>0</ele>
<time>2026-09-04T06:47:11Z</time>
</trkpt>
<trkpt lat="45.400720000" lon="-73.539440000">
<ele>0</ele>
<time>2026-09-04T06:47:12Z</time>
</trkpt>
<trkpt lat="45.400680000" lon="-73.539100000">
<ele>0</ele>
<time>2026-09-04T06:47:13Z</time>
</trkpt>
<trkpt lat="45.400680000" lon="-73.539100000">
<ele>0</ele>
<time>2026-09-04T06:47:14Z</time>
</trkpt>
<trkpt lat="45.400650000" lon="-73.538710000">
<ele>0</ele>
<time>2026-09-04T06:47:15Z</time>
</trkpt>
<trkpt lat="45.400650000" lon="-73.538250000">
<ele>0</ele>
<time>2026-09-04T06:47:16Z</time>
</trkpt>
<trkpt lat="45.400680000" lon="-73.537770000">
<ele>0</ele>
<time>2026-09-04T06:47:17Z</time>
</trkpt>
<trkpt lat="45.400720000" lon="-73.537500000">
<ele>0</ele>
<time>2026-09-04T06:47:18Z</time>
</trkpt>
<trkpt lat="45.400820000" lon="-73.536710000">
<ele>0</ele>
<time>2026-09-04T06:47:19Z</time>
</trkpt>
<trkpt lat="45.400980000" lon="-73.535710000">
<ele>0</ele>
<time>2026-09-04T06:47:20Z</time>
</trkpt>
<trkpt lat="45.401050000" lon="-73.535090000">
<ele>0</ele>
<time>2026-09-04T06:47:21Z</time>
</trkpt>
<trkpt lat="45.401070000" lon="-73.534450000">
<ele>0</ele>
<time>2026-09-04T06:47:22Z</time>
</trkpt>
<trkpt lat="45.401010000" lon="-73.533710000">
<ele>0</ele>
<time>2026-09-04T06:47:23Z</time>
</trkpt>
<trkpt lat="45.400890000" lon="-73.533140000">
<ele>0</ele>
<time>2026-09-04T06:47:24Z</time>
</trkpt>
<trkpt lat="45.400890000" lon="-73.533140000">
<ele>0</ele>
<time>2026-09-04T06:47:25Z</time>
</trkpt>
<trkpt lat="45.400690000" lon="-73.532520000">
<ele>0</ele>
<time>2026-09-04T06:47:26Z</time>
</trkpt>
<trkpt lat="45.400240000" lon="-73.531560000">
<ele>0</ele>
<time>2026-09-04T06:47:27Z</time>
</trkpt>
<trkpt lat="45.400240000" lon="-73.531560000">
<ele>0</ele>
<time>2026-09-04T06:47:28Z</time>
</trkpt>
<trkpt lat="45.400220000" lon="-73.531520000">
<ele>0</ele>
<time>2026-09-04T06:47:29Z</time>
</trkpt>
<trkpt lat="45.400390000" lon="-73.531260000">
<ele>0</ele>
<time>2026-09-04T06:47:30Z</time>
</trkpt>
<trkpt lat="45.400520000" lon="-73.531050000">
<ele>0</ele>
<time>2026-09-04T06:47:31Z</time>
</trkpt>
<trkpt lat="45.400580000" lon="-73.530810000">
<ele>0</ele>
<time>2026-09-04T06:47:32Z</time>
</trkpt>
<trkpt lat="45.400580000" lon="-73.530570000">
<ele>0</ele>
<time>2026-09-04T06:47:33Z</time>
</trkpt>
<trkpt lat="45.400510000" lon="-73.530300000">
<ele>0</ele>
<time>2026-09-04T06:47:34Z</time>
</trkpt>
<trkpt lat="45.400510000" lon="-73.530300000">
<ele>0</ele>
<time>2026-09-04T06:47:35Z</time>
</trkpt>
<trkpt lat="45.400400000" lon="-73.530030000">
<ele>0</ele>
<time>2026-09-04T06:47:36Z</time>
</trkpt>
<trkpt lat="45.400280000" lon="-73.529840000">
<ele>0</ele>
<time>2026-09-04T06:47:37Z</time>
</trkpt>
<trkpt lat="45.400230000" lon="-73.529830000">
<ele>0</ele>
<time>2026-09-04T06:47:38Z</time>
</trkpt>
<trkpt lat="45.400190000" lon="-73.529860000">
<ele>0</ele>
<time>2026-09-04T06:47:39Z</time>
</trkpt>
<trkpt lat="45.400100000" lon="-73.529980000">
<ele>0</ele>
<time>2026-09-04T06:47:40Z</time>
</trkpt>
<trkpt lat="45.400000000" lon="-73.530040000">
<ele>0</ele>
<time>2026-09-04T06:47:41Z</time>
</trkpt>
<trkpt lat="45.399900000" lon="-73.530050000">
<ele>0</ele>
<time>2026-09-04T06:47:42Z</time>
</trkpt>
<trkpt lat="45.399770000" lon="-73.529990000">
<ele>0</ele>
<time>2026-09-04T06:47:43Z</time>
</trkpt>
<trkpt lat="45.399600000" lon="-73.529840000">
<ele>0</ele>
<time>2026-09-04T06:47:44Z</time>
</trkpt>
<trkpt lat="45.399480000" lon="-73.529710000">
<ele>0</ele>
<time>2026-09-04T06:47:45Z</time>
</trkpt>
<trkpt lat="45.399320000" lon="-73.529400000">
<ele>0</ele>
<time>2026-09-04T06:47:46Z</time>
</trkpt>
<trkpt lat="45.399190000" lon="-73.529050000">
<ele>0</ele>
<time>2026-09-04T06:47:47Z</time>
</trkpt>
<trkpt lat="45.399150000" lon="-73.528890000">
<ele>0</ele>
<time>2026-09-04T06:47:48Z</time>
</trkpt>
<trkpt lat="45.399150000" lon="-73.528890000">
<ele>0</ele>
<time>2026-09-04T06:47:49Z</time>
</trkpt>
<trkpt lat="45.399130000" lon="-73.528710000">
<ele>0</ele>
<time>2026-09-04T06:47:50Z</time>
</trkpt>
<trkpt lat="45.399130000" lon="-73.528480000">
<ele>0</ele>
<time>2026-09-04T06:47:51Z</time>
</trkpt>
<trkpt lat="45.399180000" lon="-73.528140000">
<ele>0</ele>
<time>2026-09-04T06:47:52Z</time>
</trkpt>
<trkpt lat="45.399220000" lon="-73.527960000">
<ele>0</ele>
<time>2026-09-04T06:47:53Z</time>
</trkpt>
<trkpt lat="45.399220000" lon="-73.527830000">
<ele>0</ele>
<time>2026-09-04T06:47:54Z</time>
</trkpt>
<trkpt lat="45.399200000" lon="-73.527630000">
<ele>0</ele>
<time>2026-09-04T06:47:55Z</time>
</trkpt>
<trkpt lat="45.399220000" lon="-73.527490000">
<ele>0</ele>
<time>2026-09-04T06:47:56Z</time>
</trkpt>
<trkpt lat="45.399260000" lon="-73.527240000">
<ele>0</ele>
<time>2026-09-04T06:47:57Z</time>
</trkpt>
<trkpt lat="45.399260000" lon="-73.527240000">
<ele>0</ele>
<time>2026-09-04T06:47:58Z</time>
</trkpt>
<trkpt lat="45.399290000" lon="-73.526970000">
<ele>0</ele>
<time>2026-09-04T06:47:59Z</time>
</trkpt>
<trkpt lat="45.399300000" lon="-73.526690000">
<ele>0</ele>
<time>2026-09-04T06:48:00Z</time>
</trkpt>
<trkpt lat="45.399370000" lon="-73.526510000">
<ele>0</ele>
<time>2026-09-04T06:48:01Z</time>
</trkpt>
<trkpt lat="45.399430000" lon="-73.526460000">
<ele>0</ele>
<time>2026-09-04T06:48:02Z</time>
</trkpt>
<trkpt lat="45.399500000" lon="-73.526440000">
<ele>0</ele>
<time>2026-09-04T06:48:03Z</time>
</trkpt>
<trkpt lat="45.399670000" lon="-73.526420000">
<ele>0</ele>
<time>2026-09-04T06:48:04Z</time>
</trkpt>
<trkpt lat="45.399740000" lon="-73.526390000">
<ele>0</ele>
<time>2026-09-04T06:48:05Z</time>
</trkpt>
<trkpt lat="45.399880000" lon="-73.526300000">
<ele>0</ele>
<time>2026-09-04T06:48:06Z</time>
</trkpt>
<trkpt lat="45.399990000" lon="-73.526160000">
<ele>0</ele>
<time>2026-09-04T06:48:07Z</time>
</trkpt>
<trkpt lat="45.400040000" lon="-73.526050000">
<ele>0</ele>
<time>2026-09-04T06:48:08Z</time>
</trkpt>
<trkpt lat="45.400040000" lon="-73.526050000">
<ele>0</ele>
<time>2026-09-04T06:48:09Z</time>
</trkpt>
<trkpt lat="45.400070000" lon="-73.525930000">
<ele>0</ele>
<time>2026-09-04T06:48:10Z</time>
</trkpt>
<trkpt lat="45.400060000" lon="-73.525820000">
<ele>0</ele>
<time>2026-09-04T06:48:11Z</time>
</trkpt>
<trkpt lat="45.399630000" lon="-73.524930000">
<ele>0</ele>
<time>2026-09-04T06:48:12Z</time>
</trkpt>
<trkpt lat="45.399620000" lon="-73.524850000">
<ele>0</ele>
<time>2026-09-04T06:48:13Z</time>
</trkpt>
<trkpt lat="45.399630000" lon="-73.524800000">
<ele>0</ele>
<time>2026-09-04T06:48:14Z</time>
</trkpt>
<trkpt lat="45.399650000" lon="-73.524770000">
<ele>0</ele>
<time>2026-09-04T06:48:15Z</time>
</trkpt>
<trkpt lat="45.399630000" lon="-73.524740000">
<ele>0</ele>
<time>2026-09-04T06:48:16Z</time>
</trkpt>
<trkpt lat="45.399630000" lon="-73.524740000">
<ele>0</ele>
<time>2026-09-04T06:48:17Z</time>
</trkpt>
<trkpt lat="45.399570000" lon="-73.524650000">
<ele>0</ele>
<time>2026-09-04T06:48:18Z</time>
</trkpt>
<trkpt lat="45.399670000" lon="-73.524480000">
<ele>0</ele>
<time>2026-09-04T06:48:19Z</time>
</trkpt>
<trkpt lat="45.399970000" lon="-73.523940000">
<ele>0</ele>
<time>2026-09-04T06:48:20Z</time>
</trkpt>
<trkpt lat="45.400970000" lon="-73.522240000">
<ele>0</ele>
<time>2026-09-04T06:48:21Z</time>
</trkpt>
<trkpt lat="45.402120000" lon="-73.520260000">
<ele>0</ele>
<time>2026-09-04T06:48:22Z</time>
</trkpt>
<trkpt lat="45.402860000" lon="-73.519010000">
<ele>0</ele>
<time>2026-09-04T06:48:23Z</time>
</trkpt>
<trkpt lat="45.403530000" lon="-73.517790000">
<ele>0</ele>
<time>2026-09-04T06:48:24Z</time>
</trkpt>
<trkpt lat="45.404140000" lon="-73.516510000">
<ele>0</ele>
<time>2026-09-04T06:48:25Z</time>
</trkpt>
<trkpt lat="45.404140000" lon="-73.516510000">
<ele>0</ele>
<time>2026-09-04T06:48:26Z</time>
</trkpt>
<trkpt lat="45.405740000" lon="-73.513120000">
<ele>0</ele>
<time>2026-09-04T06:48:27Z</time>
</trkpt>
<trkpt lat="45.406280000" lon="-73.511910000">
<ele>0</ele>
<time>2026-09-04T06:48:28Z</time>
</trkpt>
<trkpt lat="45.407700000" lon="-73.508540000">
<ele>0</ele>
<time>2026-09-04T06:48:29Z</time>
</trkpt>
<trkpt lat="45.407700000" lon="-73.508540000">
<ele>0</ele>
<time>2026-09-04T06:48:30Z</time>
</trkpt>
<trkpt lat="45.408130000" lon="-73.507520000">
<ele>0</ele>
<time>2026-09-04T06:48:31Z</time>
</trkpt>
<trkpt lat="45.408200000" lon="-73.507570000">
<ele>0</ele>
<time>2026-09-04T06:48:32Z</time>
</trkpt>
<trkpt lat="45.408280000" lon="-73.507410000">
<ele>0</ele>
<time>2026-09-04T06:48:33Z</time>
</trkpt>
<trkpt lat="45.408300000" lon="-73.507320000">
<ele>0</ele>
<time>2026-09-04T06:48:34Z</time>
</trkpt>
<trkpt lat="45.408300000" lon="-73.507320000">
<ele>0</ele>
<time>2026-09-04T06:48:35Z</time>
</trkpt>
<trkpt lat="45.408360000" lon="-73.507110000">
<ele>0</ele>
<time>2026-09-04T06:48:36Z</time>
</trkpt>
<trkpt lat="45.408450000" lon="-73.507020000">
<ele>0</ele>
<time>2026-09-04T06:48:37Z</time>
</trkpt>
<trkpt lat="45.408580000" lon="-73.506950000">
<ele>0</ele>
<time>2026-09-04T06:48:38Z</time>
</trkpt>
<trkpt lat="45.408730000" lon="-73.506560000">
<ele>0</ele>
<time>2026-09-04T06:48:39Z</time>
</trkpt>
<trkpt lat="45.408860000" lon="-73.506410000">
<ele>0</ele>
<time>2026-09-04T06:48:40Z</time>
</trkpt>
<trkpt lat="45.409110000" lon="-73.506250000">
<ele>0</ele>
<time>2026-09-04T06:48:41Z</time>
</trkpt>
<trkpt lat="45.409670000" lon="-73.505890000">
<ele>0</ele>
<time>2026-09-04T06:48:42Z</time>
</trkpt>
<trkpt lat="45.409740000" lon="-73.505780000">
<ele>0</ele>
<time>2026-09-04T06:48:43Z</time>
</trkpt>
<trkpt lat="45.409780000" lon="-73.505720000">
<ele>0</ele>
<time>2026-09-04T06:48:44Z</time>
</trkpt>
<trkpt lat="45.410060000" lon="-73.505570000">
<ele>0</ele>
<time>2026-09-04T06:48:45Z</time>
</trkpt>
<trkpt lat="45.410400000" lon="-73.505380000">
<ele>0</ele>
<time>2026-09-04T06:48:46Z</time>
</trkpt>
<trkpt lat="45.411050000" lon="-73.504980000">
<ele>0</ele>
<time>2026-09-04T06:48:47Z</time>
</trkpt>
<trkpt lat="45.411190000" lon="-73.504910000">
<ele>0</ele>
<time>2026-09-04T06:48:48Z</time>
</trkpt>
<trkpt lat="45.411420000" lon="-73.504710000">
<ele>0</ele>
<time>2026-09-04T06:48:49Z</time>
</trkpt>
<trkpt lat="45.411780000" lon="-73.504370000">
<ele>0</ele>
<time>2026-09-04T06:48:50Z</time>
</trkpt>
<trkpt lat="45.411980000" lon="-73.504150000">
<ele>0</ele>
<time>2026-09-04T06:48:51Z</time>
</trkpt>
<trkpt lat="45.412500000" lon="-73.503550000">
<ele>0</ele>
<time>2026-09-04T06:48:52Z</time>
</trkpt>
<trkpt lat="45.413090000" lon="-73.502830000">
<ele>0</ele>
<time>2026-09-04T06:48:53Z</time>
</trkpt>
<trkpt lat="45.413740000" lon="-73.502070000">
<ele>0</ele>
<time>2026-09-04T06:48:54Z</time>
</trkpt>
<trkpt lat="45.413950000" lon="-73.501860000">
<ele>0</ele>
<time>2026-09-04T06:48:55Z</time>
</trkpt>
<trkpt lat="45.414430000" lon="-73.501460000">
<ele>0</ele>
<time>2026-09-04T06:48:56Z</time>
</trkpt>
<trkpt lat="45.414960000" lon="-73.501100000">
<ele>0</ele>
<time>2026-09-04T06:48:57Z</time>
</trkpt>
<trkpt lat="45.415330000" lon="-73.500910000">
<ele>0</ele>
<time>2026-09-04T06:48:58Z</time>
</trkpt>
<trkpt lat="45.416860000" lon="-73.500160000">
<ele>0</ele>
<time>2026-09-04T06:48:59Z</time>
</trkpt>
<trkpt lat="45.418410000" lon="-73.499450000">
<ele>0</ele>
<time>2026-09-04T06:49:00Z</time>
</trkpt>
<trkpt lat="45.418860000" lon="-73.499230000">
<ele>0</ele>
<time>2026-09-04T06:49:01Z</time>
</trkpt>
<trkpt lat="45.418860000" lon="-73.499350000">
<ele>0</ele>
<time>2026-09-04T06:49:02Z</time>
</trkpt>
<trkpt lat="45.418770000" lon="-73.499410000">
<ele>0</ele>
<time>2026-09-04T06:49:03Z</time>
</trkpt>
<trkpt lat="45.418720000" lon="-73.499480000">
<ele>0</ele>
<time>2026-09-04T06:49:04Z</time>
</trkpt>
<trkpt lat="45.418680000" lon="-73.499630000">
<ele>0</ele>
<time>2026-09-04T06:49:05Z</time>
</trkpt>
<trkpt lat="45.418640000" lon="-73.499710000">
<ele>0</ele>
<time>2026-09-04T06:49:06Z</time>
</trkpt>
<trkpt lat="45.418550000" lon="-73.499750000">
<ele>0</ele>
<time>2026-09-04T06:49:07Z</time>
</trkpt>
<trkpt lat="45.418460000" lon="-73.499680000">
<ele>0</ele>
<time>2026-09-04T06:49:08Z</time>
</trkpt>
<trkpt lat="45.418370000" lon="-73.499350000">
<ele>0</ele>
<time>2026-09-04T06:49:09Z</time>
</trkpt>
<trkpt lat="45.418310000" lon="-73.499100000">
<ele>0</ele>
<time>2026-09-04T06:49:10Z</time>
</trkpt>
<trkpt lat="45.418230000" lon="-73.498780000">
<ele>0</ele>
<time>2026-09-04T06:49:11Z</time>
</trkpt>
<trkpt lat="45.418220000" lon="-73.498750000">
<ele>0</ele>
<time>2026-09-04T06:49:12Z</time>
</trkpt>
<trkpt lat="45.418190000" lon="-73.498620000">
<ele>0</ele>
<time>2026-09-04T06:49:13Z</time>
</trkpt>
<trkpt lat="45.418120000" lon="-73.498590000">
<ele>0</ele>
<time>2026-09-04T06:49:14Z</time>
</trkpt>
<trkpt lat="45.418060000" lon="-73.498690000">
<ele>0</ele>
<time>2026-09-04T06:49:15Z</time>
</trkpt>
<trkpt lat="45.418010000" lon="-73.498760000">
<ele>0</ele>
<time>2026-09-04T06:49:16Z</time>
</trkpt>
<trkpt lat="45.417950000" lon="-73.498720000">
<ele>0</ele>
<time>2026-09-04T06:49:17Z</time>
</trkpt>
<trkpt lat="45.417940000" lon="-73.498590000">
<ele>0</ele>
<time>2026-09-04T06:49:18Z</time>
</trkpt>
<trkpt lat="45.417940000" lon="-73.498520000">
<ele>0</ele>
<time>2026-09-04T06:49:19Z</time>
</trkpt>
<trkpt lat="45.417900000" lon="-73.498460000">
<ele>0</ele>
<time>2026-09-04T06:49:20Z</time>
</trkpt>
<trkpt lat="45.417840000" lon="-73.498470000">
<ele>0</ele>
<time>2026-09-04T06:49:21Z</time>
</trkpt>
<trkpt lat="45.417770000" lon="-73.498550000">
<ele>0</ele>
<time>2026-09-04T06:49:22Z</time>
</trkpt>
<trkpt lat="45.417720000" lon="-73.498540000">
<ele>0</ele>
<time>2026-09-04T06:49:23Z</time>
</trkpt>
<trkpt lat="45.417700000" lon="-73.498460000">
<ele>0</ele>
<time>2026-09-04T06:49:24Z</time>
</trkpt>
<trkpt lat="45.418340000" lon="-73.498090000">
<ele>0</ele>
<time>2026-09-04T06:49:25Z</time>
</trkpt>
<trkpt lat="45.418340000" lon="-73.498090000">
<ele>0</ele>
<time>2026-09-04T06:49:26Z</time>
</trkpt>
<trkpt lat="45.418830000" lon="-73.497880000">
<ele>0</ele>
<time>2026-09-04T06:49:27Z</time>
</trkpt>
<trkpt lat="45.419360000" lon="-73.497970000">
<ele>0</ele>
<time>2026-09-04T06:49:28Z</time>
</trkpt>
<trkpt lat="45.419490000" lon="-73.497940000">
<ele>0</ele>
<time>2026-09-04T06:49:29Z</time>
</trkpt>
<trkpt lat="45.419920000" lon="-73.497690000">
<ele>0</ele>
<time>2026-09-04T06:49:30Z</time>
</trkpt>
<trkpt lat="45.420140000" lon="-73.497500000">
<ele>0</ele>
<time>2026-09-04T06:49:31Z</time>
</trkpt>
<trkpt lat="45.420560000" lon="-73.497030000">
<ele>0</ele>
<time>2026-09-04T06:49:32Z</time>
</trkpt>
<trkpt lat="45.420960000" lon="-73.496820000">
<ele>0</ele>
<time>2026-09-04T06:49:33Z</time>
</trkpt>
<trkpt lat="45.421000000" lon="-73.496960000">
<ele>0</ele>
<time>2026-09-04T06:49:34Z</time>
</trkpt>
<trkpt lat="45.421070000" lon="-73.496980000">
<ele>0</ele>
<time>2026-09-04T06:49:35Z</time>
</trkpt>
<trkpt lat="45.421220000" lon="-73.496870000">
<ele>0</ele>
<time>2026-09-04T06:49:36Z</time>
</trkpt>
<trkpt lat="45.421350000" lon="-73.496650000">
<ele>0</ele>
<time>2026-09-04T06:49:37Z</time>
</trkpt>
<trkpt lat="45.421830000" lon="-73.496410000">
<ele>0</ele>
<time>2026-09-04T06:49:38Z</time>
</trkpt>
<trkpt lat="45.421860000" lon="-73.496390000">
<ele>0</ele>
<time>2026-09-04T06:49:39Z</time>
</trkpt>
<trkpt lat="45.421860000" lon="-73.496390000">
<ele>0</ele>
<time>2026-09-04T06:49:40Z</time>
</trkpt>
<trkpt lat="45.421980000" lon="-73.496130000">
<ele>0</ele>
<time>2026-09-04T06:49:41Z</time>
</trkpt>
<trkpt lat="45.422070000" lon="-73.496010000">
<ele>0</ele>
<time>2026-09-04T06:49:42Z</time>
</trkpt>
<trkpt lat="45.422650000" lon="-73.495520000">
<ele>0</ele>
<time>2026-09-04T06:49:43Z</time>
</trkpt>
<trkpt lat="45.423290000" lon="-73.495010000">
<ele>0</ele>
<time>2026-09-04T06:49:44Z</time>
</trkpt>
<trkpt lat="45.423440000" lon="-73.494840000">
<ele>0</ele>
<time>2026-09-04T06:49:45Z</time>
</trkpt>
<trkpt lat="45.423660000" lon="-73.494480000">
<ele>0</ele>
<time>2026-09-04T06:49:46Z</time>
</trkpt>
<trkpt lat="45.424080000" lon="-73.493690000">
<ele>0</ele>
<time>2026-09-04T06:49:47Z</time>
</trkpt>
<trkpt lat="45.425110000" lon="-73.491910000">
<ele>0</ele>
<time>2026-09-04T06:49:48Z</time>
</trkpt>
<trkpt lat="45.425210000" lon="-73.491710000">
<ele>0</ele>
<time>2026-09-04T06:49:49Z</time>
</trkpt>
<trkpt lat="45.425560000" lon="-73.490830000">
<ele>0</ele>
<time>2026-09-04T06:49:50Z</time>
</trkpt>
<trkpt lat="45.425940000" lon="-73.489650000">
<ele>0</ele>
<time>2026-09-04T06:49:51Z</time>
</trkpt>
<trkpt lat="45.426380000" lon="-73.488420000">
<ele>0</ele>
<time>2026-09-04T06:49:52Z</time>
</trkpt>
<trkpt lat="45.426540000" lon="-73.487900000">
<ele>0</ele>
<time>2026-09-04T06:49:53Z</time>
</trkpt>
<trkpt lat="45.426730000" lon="-73.486960000">
<ele>0</ele>
<time>2026-09-04T06:49:54Z</time>
</trkpt>
<trkpt lat="45.426780000" lon="-73.486830000">
<ele>0</ele>
<time>2026-09-04T06:49:55Z</time>
</trkpt>
<trkpt lat="45.427120000" lon="-73.486760000">
<ele>0</ele>
<time>2026-09-04T06:49:56Z</time>
</trkpt>
<trkpt lat="45.427120000" lon="-73.486760000">
<ele>0</ele>
<time>2026-09-04T06:49:57Z</time>
</trkpt>
<trkpt lat="45.427400000" lon="-73.486680000">
<ele>0</ele>
<time>2026-09-04T06:49:58Z</time>
</trkpt>
<trkpt lat="45.427470000" lon="-73.486650000">
<ele>0</ele>
<time>2026-09-04T06:49:59Z</time>
</trkpt>
<trkpt lat="45.427510000" lon="-73.486560000">
<ele>0</ele>
<time>2026-09-04T06:50:00Z</time>
</trkpt>
<trkpt lat="45.427740000" lon="-73.486180000">
<ele>0</ele>
<time>2026-09-04T06:50:01Z</time>
</trkpt>
<trkpt lat="45.427810000" lon="-73.486160000">
<ele>0</ele>
<time>2026-09-04T06:50:02Z</time>
</trkpt>
<trkpt lat="45.427960000" lon="-73.486170000">
<ele>0</ele>
<time>2026-09-04T06:50:03Z</time>
</trkpt>
<trkpt lat="45.428200000" lon="-73.486220000">
<ele>0</ele>
<time>2026-09-04T06:50:04Z</time>
</trkpt>
<trkpt lat="45.428350000" lon="-73.486310000">
<ele>0</ele>
<time>2026-09-04T06:50:05Z</time>
</trkpt>
<trkpt lat="45.428640000" lon="-73.486630000">
<ele>0</ele>
<time>2026-09-04T06:50:06Z</time>
</trkpt>
<trkpt lat="45.428890000" lon="-73.486810000">
<ele>0</ele>
<time>2026-09-04T06:50:07Z</time>
</trkpt>
<trkpt lat="45.428980000" lon="-73.486820000">
<ele>0</ele>
<time>2026-09-04T06:50:08Z</time>
</trkpt>
<trkpt lat="45.429090000" lon="-73.486810000">
<ele>0</ele>
<time>2026-09-04T06:50:09Z</time>
</trkpt>
<trkpt lat="45.430460000" lon="-73.486390000">
<ele>0</ele>
<time>2026-09-04T06:50:10Z</time>
</trkpt>
<trkpt lat="45.430750000" lon="-73.486260000">
<ele>0</ele>
<time>2026-09-04T06:50:11Z</time>
</trkpt>
<trkpt lat="45.430920000" lon="-73.486060000">
<ele>0</ele>
<time>2026-09-04T06:50:12Z</time>
</trkpt>
<trkpt lat="45.431060000" lon="-73.485830000">
<ele>0</ele>
<time>2026-09-04T06:50:13Z</time>
</trkpt>
<trkpt lat="45.431480000" lon="-73.486040000">
<ele>0</ele>
<time>2026-09-04T06:50:14Z</time>
</trkpt>
<trkpt lat="45.431530000" lon="-73.486060000">
<ele>0</ele>
<time>2026-09-04T06:50:15Z</time>
</trkpt>
<trkpt lat="45.431560000" lon="-73.486040000">
<ele>0</ele>
<time>2026-09-04T06:50:16Z</time>
</trkpt>
<trkpt lat="45.431670000" lon="-73.485960000">
<ele>0</ele>
<time>2026-09-04T06:50:17Z</time>
</trkpt>
<trkpt lat="45.431740000" lon="-73.485870000">
<ele>0</ele>
<time>2026-09-04T06:50:18Z</time>
</trkpt>
<trkpt lat="45.431810000" lon="-73.485670000">
<ele>0</ele>
<time>2026-09-04T06:50:19Z</time>
</trkpt>
<trkpt lat="45.431860000" lon="-73.485530000">
<ele>0</ele>
<time>2026-09-04T06:50:20Z</time>
</trkpt>
<trkpt lat="45.431940000" lon="-73.485400000">
<ele>0</ele>
<time>2026-09-04T06:50:21Z</time>
</trkpt>
<trkpt lat="45.432100000" lon="-73.485210000">
<ele>0</ele>
<time>2026-09-04T06:50:22Z</time>
</trkpt>
<trkpt lat="45.432380000" lon="-73.484870000">
<ele>0</ele>
<time>2026-09-04T06:50:23Z</time>
</trkpt>
<trkpt lat="45.432490000" lon="-73.484690000">
<ele>0</ele>
<time>2026-09-04T06:50:24Z</time>
</trkpt>
<trkpt lat="45.432510000" lon="-73.484530000">
<ele>0</ele>
<time>2026-09-04T06:50:25Z</time>
</trkpt>
<trkpt lat="45.432540000" lon="-73.484300000">
<ele>0</ele>
<time>2026-09-04T06:50:26Z</time>
</trkpt>
<trkpt lat="45.432630000" lon="-73.483980000">
<ele>0</ele>
<time>2026-09-04T06:50:27Z</time>
</trkpt>
<trkpt lat="45.432690000" lon="-73.483770000">
<ele>0</ele>
<time>2026-09-04T06:50:28Z</time>
</trkpt>
<trkpt lat="45.432860000" lon="-73.483490000">
<ele>0</ele>
<time>2026-09-04T06:50:29Z</time>
</trkpt>
<trkpt lat="45.432910000" lon="-73.483450000">
<ele>0</ele>
<time>2026-09-04T06:50:30Z</time>
</trkpt>
<trkpt lat="45.432970000" lon="-73.483440000">
<ele>0</ele>
<time>2026-09-04T06:50:31Z</time>
</trkpt>
<trkpt lat="45.433060000" lon="-73.483490000">
<ele>0</ele>
<time>2026-09-04T06:50:32Z</time>
</trkpt>
<trkpt lat="45.433160000" lon="-73.483600000">
<ele>0</ele>
<time>2026-09-04T06:50:33Z</time>
</trkpt>
<trkpt lat="45.433240000" lon="-73.483750000">
<ele>0</ele>
<time>2026-09-04T06:50:35Z</time>
</trkpt>
<trkpt lat="45.433280000" lon="-73.483820000">
<ele>0</ele>
<time>2026-09-04T06:50:36Z</time>
</trkpt>
<trkpt lat="45.433400000" lon="-73.483910000">
<ele>0</ele>
<time>2026-09-04T06:50:37Z</time>
</trkpt>
<trkpt lat="45.433480000" lon="-73.483960000">
<ele>0</ele>
<time>2026-09-04T06:50:38Z</time>
</trkpt>
<trkpt lat="45.433500000" lon="-73.484040000">
<ele>0</ele>
<time>2026-09-04T06:50:39Z</time>
</trkpt>
<trkpt lat="45.433590000" lon="-73.484180000">
<ele>0</ele>
<time>2026-09-04T06:50:40Z</time>
</trkpt>
<trkpt lat="45.433590000" lon="-73.484180000">
<ele>0</ele>
<time>2026-09-04T06:50:41Z</time>
</trkpt>
<trkpt lat="45.433990000" lon="-73.484730000">
<ele>0</ele>
<time>2026-09-04T06:50:42Z</time>
</trkpt>
<trkpt lat="45.434050000" lon="-73.484760000">
<ele>0</ele>
<time>2026-09-04T06:50:43Z</time>
</trkpt>
<trkpt lat="45.435390000" lon="-73.484700000">
<ele>0</ele>
<time>2026-09-04T06:50:44Z</time>
</trkpt>
<trkpt lat="45.435380000" lon="-73.485060000">
<ele>0</ele>
<time>2026-09-04T06:50:45Z</time>
</trkpt>
<trkpt lat="45.435380000" lon="-73.485060000">
<ele>0</ele>
<time>2026-09-04T06:50:46Z</time>
</trkpt>
<trkpt lat="45.435370000" lon="-73.487560000">
<ele>0</ele>
<time>2026-09-04T06:50:47Z</time>
</trkpt>
<trkpt lat="45.435380000" lon="-73.488630000">
<ele>0</ele>
<time>2026-09-04T06:50:48Z</time>
</trkpt>
<trkpt lat="45.435340000" lon="-73.489570000">
<ele>0</ele>
<time>2026-09-04T06:50:49Z</time>
</trkpt>
<trkpt lat="45.435340000" lon="-73.490370000">
<ele>0</ele>
<time>2026-09-04T06:50:50Z</time>
</trkpt>
<trkpt lat="45.435360000" lon="-73.490500000">
<ele>0</ele>
<time>2026-09-04T06:50:51Z</time>
</trkpt>
<trkpt lat="45.435390000" lon="-73.490650000">
<ele>0</ele>
<time>2026-09-04T06:50:52Z</time>
</trkpt>
<trkpt lat="45.435430000" lon="-73.490750000">
<ele>0</ele>
<time>2026-09-04T06:50:53Z</time>
</trkpt>
<trkpt lat="45.435500000" lon="-73.490790000">
<ele>0</ele>
<time>2026-09-04T06:50:54Z</time>
</trkpt>
<trkpt lat="45.435520000" lon="-73.490810000">
<ele>0</ele>
<time>2026-09-04T06:50:55Z</time>
</trkpt>
<trkpt lat="45.435520000" lon="-73.490800000">
<ele>0</ele>
<time>2026-09-04T06:50:56Z</time>
</trkpt>
<trkpt lat="45.435430000" lon="-73.490750000">
<ele>0</ele>
<time>2026-09-04T06:50:57Z</time>
</trkpt>
<trkpt lat="45.435360000" lon="-73.490550000">
<ele>0</ele>
<time>2026-09-04T06:50:58Z</time>
</trkpt>
<trkpt lat="45.435350000" lon="-73.490430000">
<ele>0</ele>
<time>2026-09-04T06:50:59Z</time>
</trkpt>
<trkpt lat="45.435340000" lon="-73.490370000">
<ele>0</ele>
<time>2026-09-04T06:51:00Z</time>
</trkpt>
<trkpt lat="45.435320000" lon="-73.490620000">
<ele>0</ele>
<time>2026-09-04T06:51:01Z</time>
</trkpt>
<trkpt lat="45.435310000" lon="-73.491310000">
<ele>0</ele>
<time>2026-09-04T06:51:02Z</time>
</trkpt>
<trkpt lat="45.435280000" lon="-73.491700000">
<ele>0</ele>
<time>2026-09-04T06:51:03Z</time>
</trkpt>
<trkpt lat="45.435340000" lon="-73.491710000">
<ele>0</ele>
<time>2026-09-04T06:51:04Z</time>
</trkpt>
<trkpt lat="45.435340000" lon="-73.491810000">
<ele>0</ele>
<time>2026-09-04T06:51:05Z</time>
</trkpt>
<trkpt lat="45.435370000" lon="-73.491930000">
<ele>0</ele>
<time>2026-09-04T06:51:06Z</time>
</trkpt>
<trkpt lat="45.435400000" lon="-73.491970000">
<ele>0</ele>
<time>2026-09-04T06:51:07Z</time>
</trkpt>
<trkpt lat="45.435510000" lon="-73.492000000">
<ele>0</ele>
<time>2026-09-04T06:51:08Z</time>
</trkpt>
<trkpt lat="45.435880000" lon="-73.492070000">
<ele>0</ele>
<time>2026-09-04T06:51:09Z</time>
</trkpt>
<trkpt lat="45.435980000" lon="-73.492200000">
<ele>0</ele>
<time>2026-09-04T06:51:10Z</time>
</trkpt>
<trkpt lat="45.436050000" lon="-73.492430000">
<ele>0</ele>
<time>2026-09-04T06:51:11Z</time>
</trkpt>
<trkpt lat="45.436060000" lon="-73.492880000">
<ele>0</ele>
<time>2026-09-04T06:51:12Z</time>
</trkpt>
<trkpt lat="45.436090000" lon="-73.493130000">
<ele>0</ele>
<time>2026-09-04T06:51:13Z</time>
</trkpt>
<trkpt lat="45.436160000" lon="-73.493290000">
<ele>0</ele>
<time>2026-09-04T06:51:14Z</time>
</trkpt>
<trkpt lat="45.436270000" lon="-73.493380000">
<ele>0</ele>
<time>2026-09-04T06:51:15Z</time>
</trkpt>
<trkpt lat="45.436300000" lon="-73.493400000">
<ele>0</ele>
<time>2026-09-04T06:51:16Z</time>
</trkpt>
<trkpt lat="45.436990000" lon="-73.493580000">
<ele>0</ele>
<time>2026-09-04T06:51:17Z</time>
</trkpt>
<trkpt lat="45.437180000" lon="-73.493660000">
<ele>0</ele>
<time>2026-09-04T06:51:18Z</time>
</trkpt>
<trkpt lat="45.437460000" lon="-73.493840000">
<ele>0</ele>
<time>2026-09-04T06:51:19Z</time>
</trkpt>
<trkpt lat="45.437770000" lon="-73.494070000">
<ele>0</ele>
<time>2026-09-04T06:51:20Z</time>
</trkpt>
<trkpt lat="45.437850000" lon="-73.494090000">
<ele>0</ele>
<time>2026-09-04T06:51:21Z</time>
</trkpt>
<trkpt lat="45.437930000" lon="-73.494060000">
<ele>0</ele>
<time>2026-09-04T06:51:22Z</time>
</trkpt>
<trkpt lat="45.438090000" lon="-73.493950000">
<ele>0</ele>
<time>2026-09-04T06:51:23Z</time>
</trkpt>
<trkpt lat="45.438170000" lon="-73.493860000">
<ele>0</ele>
<time>2026-09-04T06:51:24Z</time>
</trkpt>
<trkpt lat="45.438320000" lon="-73.493600000">
<ele>0</ele>
<time>2026-09-04T06:51:25Z</time>
</trkpt>
<trkpt lat="45.438460000" lon="-73.493360000">
<ele>0</ele>
<time>2026-09-04T06:51:26Z</time>
</trkpt>
<trkpt lat="45.438520000" lon="-73.493280000">
<ele>0</ele>
<time>2026-09-04T06:51:27Z</time>
</trkpt>
<trkpt lat="45.438640000" lon="-73.493210000">
<ele>0</ele>
<time>2026-09-04T06:51:28Z</time>
</trkpt>
<trkpt lat="45.439070000" lon="-73.492980000">
<ele>0</ele>
<time>2026-09-04T06:51:29Z</time>
</trkpt>
<trkpt lat="45.439100000" lon="-73.492930000">
<ele>0</ele>
<time>2026-09-04T06:51:30Z</time>
</trkpt>
<trkpt lat="45.439180000" lon="-73.492940000">
<ele>0</ele>
<time>2026-09-04T06:51:31Z</time>
</trkpt>
<trkpt lat="45.439280000" lon="-73.492990000">
<ele>0</ele>
<time>2026-09-04T06:51:32Z</time>
</trkpt>
<trkpt lat="45.439890000" lon="-73.493260000">
<ele>0</ele>
<time>2026-09-04T06:51:33Z</time>
</trkpt>
<trkpt lat="45.440160000" lon="-73.493350000">
<ele>0</ele>
<time>2026-09-04T06:51:34Z</time>
</trkpt>
<trkpt lat="45.440750000" lon="-73.493430000">
<ele>0</ele>
<time>2026-09-04T06:51:35Z</time>
</trkpt>
<trkpt lat="45.440800000" lon="-73.493410000">
<ele>0</ele>
<time>2026-09-04T06:51:36Z</time>
</trkpt>
<trkpt lat="45.440840000" lon="-73.493350000">
<ele>0</ele>
<time>2026-09-04T06:51:37Z</time>
</trkpt>
<trkpt lat="45.441060000" lon="-73.493410000">
<ele>0</ele>
<time>2026-09-04T06:51:38Z</time>
</trkpt>
<trkpt lat="45.441570000" lon="-73.493470000">
<ele>0</ele>
<time>2026-09-04T06:51:39Z</time>
</trkpt>
<trkpt lat="45.442240000" lon="-73.493480000">
<ele>0</ele>
<time>2026-09-04T06:51:40Z</time>
</trkpt>
<trkpt lat="45.442840000" lon="-73.493460000">
<ele>0</ele>
<time>2026-09-04T06:51:41Z</time>
</trkpt>
<trkpt lat="45.443350000" lon="-73.493430000">
<ele>0</ele>
<time>2026-09-04T06:51:42Z</time>
</trkpt>
<trkpt lat="45.444430000" lon="-73.493320000">
<ele>0</ele>
<time>2026-09-04T06:51:43Z</time>
</trkpt>
<trkpt lat="45.445210000" lon="-73.493260000">
<ele>0</ele>
<time>2026-09-04T06:51:44Z</time>
</trkpt>
<trkpt lat="45.445300000" lon="-73.493250000">
<ele>0</ele>
<time>2026-09-04T06:51:45Z</time>
</trkpt>
<trkpt lat="45.445300000" lon="-73.493370000">
<ele>0</ele>
<time>2026-09-04T06:51:46Z</time>
</trkpt>
<trkpt lat="45.445320000" lon="-73.493520000">
<ele>0</ele>
<time>2026-09-04T06:51:47Z</time>
</trkpt>
<trkpt lat="45.445320000" lon="-73.493520000">
<ele>0</ele>
<time>2026-09-04T06:51:48Z</time>
</trkpt>
<trkpt lat="45.445380000" lon="-73.494820000">
<ele>0</ele>
<time>2026-09-04T06:51:49Z</time>
</trkpt>
</trkseg>
</trk>
</gpx>
